BAW173A EGLL-KJFK
Flight info
| Callsign | BAW173A |
|---|---|
| Flight time | 6h 53m |
| Altitude | 36000 |
| Route | CPT L9 BUCGO DCT FELCA DCT OFSOX DCT SLANY DCT MALOT/M083F370 NATE RIKAL/N0478F380 N572A TOPPS DCT ENE PARCH4 |
| Aircraft | B77W/H-SDE1E2E3FGHIJ2J3J4J5M1RWXY/LB1D1 |
Departure
| Time | 2026-05-05 11:02 |
|---|---|
| Airport | London Heathrow Airport (EGLL) |
Arrival
| Time | 2026-05-05 17:55 |
|---|---|
| Airport | John F. Kennedy International Airport (KJFK) |
| Time | Latitude | Longitude | Altitude | Speed | Heading |
|---|---|---|---|---|---|
| 2026-05-05 10:08 | 51.46913 | -0.48017 | 92 ft | 0 kts | 270° |
| 2026-05-05 10:49 | 51.46913 | -0.48000 | 95 ft | 3 kts | 270° |
| 2026-05-05 10:49 | 51.46913 | -0.47966 | 93 ft | 3 kts | 270° |
| 2026-05-05 10:50 | 51.46913 | -0.47938 | 94 ft | 3 kts | 266° |
| 2026-05-05 10:50 | 51.46916 | -0.47911 | 93 ft | 3 kts | 241° |
| 2026-05-05 10:50 | 51.46925 | -0.47890 | 94 ft | 3 kts | 215° |
| 2026-05-05 10:50 | 51.46941 | -0.47876 | 91 ft | 3 kts | 193° |
| 2026-05-05 10:51 | 51.46960 | -0.47871 | 90 ft | 2 kts | 180° |
| 2026-05-05 10:51 | 51.46967 | -0.47872 | 91 ft | 0 kts | 180° |
| 2026-05-05 10:55 | 51.46966 | -0.47872 | 92 ft | 1 kts | 180° |
| 2026-05-05 10:56 | 51.46918 | -0.47871 | 92 ft | 10 kts | 180° |
| 2026-05-05 10:56 | 51.46851 | -0.47870 | 92 ft | 10 kts | 180° |
| 2026-05-05 10:56 | 51.46786 | -0.47870 | 92 ft | 8 kts | 180° |
| 2026-05-05 10:56 | 51.46750 | -0.47890 | 96 ft | 5 kts | 234° |
| 2026-05-05 10:57 | 51.46744 | -0.47951 | 95 ft | 6 kts | 267° |
| 2026-05-05 10:57 | 51.46742 | -0.48013 | 92 ft | 6 kts | 267° |
| 2026-05-05 10:57 | 51.46742 | -0.48056 | 92 ft | 2 kts | 269° |
| 2026-05-05 10:57 | 51.46742 | -0.48057 | 92 ft | 0 kts | 269° |
| 2026-05-05 10:58 | 51.46742 | -0.48062 | 92 ft | 3 kts | 269° |
| 2026-05-05 10:58 | 51.46742 | -0.48153 | 119 ft | 10 kts | 270° |
| 2026-05-05 10:59 | 51.46742 | -0.48265 | 92 ft | 10 kts | 270° |
| 2026-05-05 10:59 | 51.46742 | -0.48378 | 92 ft | 10 kts | 270° |
| 2026-05-05 10:59 | 51.46742 | -0.48490 | 92 ft | 10 kts | 270° |
| 2026-05-05 10:59 | 51.46741 | -0.48602 | 92 ft | 10 kts | 269° |
| 2026-05-05 11:00 | 51.46738 | -0.48703 | 92 ft | 8 kts | 255° |
| 2026-05-05 11:00 | 51.46691 | -0.48748 | 92 ft | 9 kts | 187° |
| 2026-05-05 11:00 | 51.46630 | -0.48757 | 95 ft | 9 kts | 192° |
| 2026-05-05 11:00 | 51.46572 | -0.48783 | 95 ft | 9 kts | 193° |
| 2026-05-05 11:01 | 51.46513 | -0.48771 | 94 ft | 9 kts | 156° |
| 2026-05-05 11:01 | 51.46479 | -0.48685 | 97 ft | 15 kts | 98° |
| 2026-05-05 11:01 | 51.46479 | -0.48268 | 93 ft | 70 kts | 90° |
| 2026-05-05 11:01 | 51.46483 | -0.47088 | 95 ft | 140 kts | 90° |
| 2026-05-05 11:02 | 51.46492 | -0.45210 | 155 ft | 185 kts | 88° |
| 2026-05-05 11:02 | 51.46491 | -0.43180 | 892 ft | 183 kts | 86° |
| 2026-05-05 11:02 | 51.46491 | -0.41118 | 1629 ft | 183 kts | 86° |
| 2026-05-05 11:02 | 51.46455 | -0.39105 | 2200 ft | 186 kts | 102° |
| 2026-05-05 11:03 | 51.45655 | -0.37332 | 2531 ft | 210 kts | 148° |
| 2026-05-05 11:03 | 51.44217 | -0.36897 | 3038 ft | 221 kts | 190° |
| 2026-05-05 11:03 | 51.42763 | -0.37933 | 3355 ft | 238 kts | 217° |
| 2026-05-05 11:03 | 51.41467 | -0.39715 | 3750 ft | 249 kts | 220° |
| 2026-05-05 11:04 | 51.40166 | -0.41549 | 4457 ft | 253 kts | 222° |
| 2026-05-05 11:04 | 51.38879 | -0.43467 | 5096 ft | 252 kts | 221° |
| 2026-05-05 11:04 | 51.37563 | -0.45369 | 5429 ft | 255 kts | 220° |
| 2026-05-05 11:04 | 51.36233 | -0.47247 | 5674 ft | 255 kts | 220° |
| 2026-05-05 11:05 | 51.34890 | -0.49149 | 5941 ft | 260 kts | 220° |
| 2026-05-05 11:05 | 51.33514 | -0.51106 | 6002 ft | 266 kts | 221° |
| 2026-05-05 11:05 | 51.32139 | -0.53056 | 6027 ft | 263 kts | 220° |
| 2026-05-05 11:05 | 51.30759 | -0.55021 | 6131 ft | 273 kts | 221° |
| 2026-05-05 11:06 | 51.29326 | -0.57093 | 6701 ft | 279 kts | 221° |
| 2026-05-05 11:06 | 51.27909 | -0.59262 | 7357 ft | 282 kts | 231° |
| 2026-05-05 11:06 | 51.27192 | -0.61007 | 7824 ft | 284 kts | 245° |
| 2026-05-05 11:06 | 51.26640 | -0.64006 | 8542 ft | 286 kts | 264° |
| 2026-05-05 11:07 | 51.26873 | -0.68255 | 8418 ft | 289 kts | 291° |
| 2026-05-05 11:07 | 51.27442 | -0.70184 | 8470 ft | 282 kts | 304° |
| 2026-05-05 11:07 | 51.28741 | -0.72459 | 8708 ft | 275 kts | 325° |
| 2026-05-05 11:07 | 51.30443 | -0.73851 | 8915 ft | 279 kts | 343° |
| 2026-05-05 11:08 | 51.32288 | -0.74881 | 8982 ft | 284 kts | 332° |
| 2026-05-05 11:08 | 51.33850 | -0.76826 | 8995 ft | 287 kts | 313° |
| 2026-05-05 11:08 | 51.35084 | -0.79302 | 8998 ft | 286 kts | 307° |
| 2026-05-05 11:08 | 51.36238 | -0.81890 | 8987 ft | 283 kts | 306° |
| 2026-05-05 11:09 | 51.37356 | -0.84453 | 8990 ft | 281 kts | 306° |
| 2026-05-05 11:09 | 51.38480 | -0.87036 | 8997 ft | 281 kts | 306° |
| 2026-05-05 11:09 | 51.39601 | -0.89620 | 9001 ft | 282 kts | 306° |
| 2026-05-05 11:09 | 51.40727 | -0.92220 | 9087 ft | 284 kts | 306° |
| 2026-05-05 11:10 | 51.41809 | -0.94841 | 9801 ft | 286 kts | 303° |
| 2026-05-05 11:10 | 51.42875 | -0.97553 | 10448 ft | 291 kts | 303° |
| 2026-05-05 11:10 | 51.43992 | -1.00431 | 10700 ft | 315 kts | 302° |
| 2026-05-05 11:10 | 51.45200 | -1.03538 | 10884 ft | 340 kts | 302° |
| 2026-05-05 11:11 | 51.46492 | -1.06873 | 11137 ft | 363 kts | 302° |
| 2026-05-05 11:11 | 51.47846 | -1.10354 | 11758 ft | 375 kts | 302° |
| 2026-05-05 11:11 | 51.49250 | -1.13956 | 12607 ft | 382 kts | 302° |
| 2026-05-05 11:11 | 51.50671 | -1.17595 | 13557 ft | 387 kts | 302° |
| 2026-05-05 11:12 | 51.52103 | -1.21265 | 14408 ft | 393 kts | 302° |
| 2026-05-05 11:12 | 51.53555 | -1.24986 | 15254 ft | 397 kts | 302° |
| 2026-05-05 11:12 | 51.55036 | -1.28789 | 16093 ft | 402 kts | 302° |
| 2026-05-05 11:12 | 51.56529 | -1.32631 | 16932 ft | 407 kts | 301° |
| 2026-05-05 11:13 | 51.58047 | -1.36543 | 17780 ft | 412 kts | 301° |
| 2026-05-05 11:13 | 51.59582 | -1.40505 | 18572 ft | 417 kts | 301° |
| 2026-05-05 11:13 | 51.61119 | -1.44477 | 19271 ft | 422 kts | 301° |
| 2026-05-05 11:13 | 51.62675 | -1.48507 | 19993 ft | 426 kts | 300° |
| 2026-05-05 11:14 | 51.64240 | -1.52567 | 20684 ft | 431 kts | 300° |
| 2026-05-05 11:14 | 51.65831 | -1.56693 | 21395 ft | 435 kts | 300° |
| 2026-05-05 11:14 | 51.67428 | -1.60848 | 22106 ft | 439 kts | 300° |
| 2026-05-05 11:14 | 51.68967 | -1.65130 | 22779 ft | 442 kts | 294° |
| 2026-05-05 11:15 | 51.70123 | -1.69762 | 23441 ft | 444 kts | 286° |
| 2026-05-05 11:15 | 51.70894 | -1.74571 | 24024 ft | 446 kts | 278° |
| 2026-05-05 11:15 | 51.71272 | -1.79499 | 24619 ft | 447 kts | 274° |
| 2026-05-05 11:15 | 51.71579 | -1.84537 | 25231 ft | 449 kts | 274° |
| 2026-05-05 11:16 | 51.71911 | -1.89607 | 25816 ft | 451 kts | 274° |
| 2026-05-05 11:16 | 51.72264 | -1.94657 | 26385 ft | 454 kts | 274° |
| 2026-05-05 11:16 | 51.72625 | -1.99692 | 26924 ft | 456 kts | 274° |
| 2026-05-05 11:16 | 51.72992 | -2.04823 | 27459 ft | 459 kts | 274° |
| 2026-05-05 11:17 | 51.73349 | -2.09913 | 27968 ft | 461 kts | 274° |
| 2026-05-05 11:17 | 51.73709 | -2.15082 | 28469 ft | 464 kts | 274° |
| 2026-05-05 11:17 | 51.74069 | -2.20267 | 28939 ft | 466 kts | 274° |
| 2026-05-05 11:17 | 51.74430 | -2.25502 | 29359 ft | 469 kts | 274° |
| 2026-05-05 11:18 | 51.74792 | -2.30750 | 29838 ft | 470 kts | 274° |
| 2026-05-05 11:18 | 51.75154 | -2.36012 | 30374 ft | 468 kts | 274° |
| 2026-05-05 11:18 | 51.75505 | -2.41164 | 30796 ft | 468 kts | 274° |
| 2026-05-05 11:18 | 51.75859 | -2.46407 | 31135 ft | 470 kts | 274° |
| 2026-05-05 11:19 | 51.76212 | -2.51679 | 31491 ft | 471 kts | 274° |
| 2026-05-05 11:19 | 51.76558 | -2.56966 | 31873 ft | 472 kts | 274° |
| 2026-05-05 11:19 | 51.76881 | -2.62179 | 32261 ft | 472 kts | 274° |
| 2026-05-05 11:19 | 51.77216 | -2.67495 | 32650 ft | 472 kts | 274° |
| 2026-05-05 11:20 | 51.77555 | -2.72793 | 33020 ft | 473 kts | 274° |
| 2026-05-05 11:20 | 51.77893 | -2.78025 | 33375 ft | 473 kts | 274° |
| 2026-05-05 11:20 | 51.78232 | -2.83303 | 33690 ft | 474 kts | 274° |
| 2026-05-05 11:20 | 51.78576 | -2.88633 | 33988 ft | 476 kts | 275° |
| 2026-05-05 11:21 | 51.78912 | -2.93980 | 34257 ft | 477 kts | 275° |
| 2026-05-05 11:21 | 51.79241 | -2.99317 | 34574 ft | 476 kts | 275° |
| 2026-05-05 11:21 | 51.79565 | -3.04601 | 34917 ft | 475 kts | 275° |
| 2026-05-05 11:21 | 51.79921 | -3.09933 | 35239 ft | 474 kts | 276° |
| 2026-05-05 11:22 | 51.80238 | -3.15233 | 35501 ft | 474 kts | 275° |
| 2026-05-05 11:22 | 51.80531 | -3.20564 | 35759 ft | 474 kts | 275° |
| 2026-05-05 11:22 | 51.80832 | -3.25896 | 35940 ft | 477 kts | 275° |
| 2026-05-05 11:23 | 51.81481 | -3.36536 | 36015 ft | 478 kts | 275° |
| 2026-05-05 11:23 | 51.82118 | -3.47223 | 36019 ft | 473 kts | 275° |
| 2026-05-05 11:24 | 51.82929 | -3.57786 | 36028 ft | 472 kts | 281° |
| 2026-05-05 11:24 | 51.84287 | -3.68158 | 36029 ft | 472 kts | 282° |
| 2026-05-05 11:25 | 51.85673 | -3.78531 | 36031 ft | 473 kts | 282° |
| 2026-05-05 11:25 | 51.87035 | -3.89011 | 36033 ft | 475 kts | 282° |
| 2026-05-05 11:26 | 51.88369 | -3.99488 | 36039 ft | 477 kts | 282° |
| 2026-05-05 11:26 | 51.89701 | -4.10071 | 36037 ft | 478 kts | 282° |
| 2026-05-05 11:27 | 51.91015 | -4.20577 | 36038 ft | 479 kts | 282° |
| 2026-05-05 11:27 | 51.92334 | -4.31211 | 36047 ft | 479 kts | 282° |
| 2026-05-05 11:28 | 51.93635 | -4.41767 | 36044 ft | 479 kts | 282° |
| 2026-05-05 11:28 | 51.94935 | -4.52404 | 36050 ft | 479 kts | 282° |
| 2026-05-05 11:29 | 51.96215 | -4.62957 | 36052 ft | 478 kts | 282° |
| 2026-05-05 11:29 | 51.97485 | -4.73510 | 36058 ft | 477 kts | 282° |
| 2026-05-05 11:30 | 51.98751 | -4.84117 | 36058 ft | 476 kts | 282° |
| 2026-05-05 11:30 | 52.00014 | -4.94707 | 36057 ft | 476 kts | 282° |
| 2026-05-05 11:31 | 52.01250 | -5.05233 | 36062 ft | 476 kts | 281° |
| 2026-05-05 11:31 | 52.02471 | -5.15803 | 36064 ft | 476 kts | 281° |
| 2026-05-05 11:32 | 52.04163 | -5.26179 | 36069 ft | 475 kts | 289° |
| 2026-05-05 11:32 | 52.06285 | -5.36333 | 36072 ft | 474 kts | 289° |
| 2026-05-05 11:33 | 52.08377 | -5.46511 | 36073 ft | 474 kts | 289° |
| 2026-05-05 11:33 | 52.10443 | -5.56680 | 36068 ft | 473 kts | 288° |
| 2026-05-05 11:34 | 52.12456 | -5.66864 | 36081 ft | 473 kts | 288° |
| 2026-05-05 11:34 | 52.14480 | -5.77042 | 36076 ft | 471 kts | 288° |
| 2026-05-05 11:35 | 52.16108 | -5.85527 | 36077 ft | 471 kts | 285° |
| 2026-05-05 11:35 | 52.17608 | -5.95959 | 36080 ft | 470 kts | 282° |
| 2026-05-05 11:36 | 52.18884 | -6.06356 | 36076 ft | 469 kts | 282° |
| 2026-05-05 11:36 | 52.20191 | -6.16824 | 36075 ft | 468 kts | 282° |
| 2026-05-05 11:37 | 52.21510 | -6.27147 | 36075 ft | 468 kts | 282° |
| 2026-05-05 11:37 | 52.22846 | -6.37542 | 36081 ft | 467 kts | 282° |
| 2026-05-05 11:38 | 52.24173 | -6.47923 | 36080 ft | 467 kts | 282° |
| 2026-05-05 11:38 | 52.25492 | -6.58342 | 36084 ft | 467 kts | 282° |
| 2026-05-05 11:39 | 52.26795 | -6.68716 | 36090 ft | 466 kts | 282° |
| 2026-05-05 11:39 | 52.28086 | -6.79085 | 36096 ft | 465 kts | 281° |
| 2026-05-05 11:40 | 52.29368 | -6.89462 | 36100 ft | 465 kts | 281° |
| 2026-05-05 11:40 | 52.30632 | -6.99759 | 36099 ft | 465 kts | 281° |
| 2026-05-05 11:41 | 52.31893 | -7.10122 | 36101 ft | 464 kts | 281° |
| 2026-05-05 11:41 | 52.33145 | -7.20488 | 36097 ft | 464 kts | 281° |
| 2026-05-05 11:42 | 52.34387 | -7.30848 | 36095 ft | 463 kts | 281° |
| 2026-05-05 11:42 | 52.35620 | -7.41220 | 36096 ft | 463 kts | 281° |
| 2026-05-05 11:43 | 52.36838 | -7.51545 | 36096 ft | 463 kts | 281° |
| 2026-05-05 11:43 | 52.38048 | -7.61890 | 36097 ft | 463 kts | 281° |
| 2026-05-05 11:44 | 52.39255 | -7.72282 | 36100 ft | 463 kts | 281° |
| 2026-05-05 11:44 | 52.40451 | -7.82669 | 36099 ft | 463 kts | 281° |
| 2026-05-05 11:45 | 52.41631 | -7.93002 | 36100 ft | 463 kts | 281° |
| 2026-05-05 11:45 | 52.42810 | -8.03418 | 36103 ft | 463 kts | 281° |
| 2026-05-05 11:46 | 52.43974 | -8.13779 | 36106 ft | 463 kts | 281° |
| 2026-05-05 11:47 | 52.46299 | -8.34736 | 36117 ft | 463 kts | 280° |
| 2026-05-05 11:47 | 52.47439 | -8.45148 | 36118 ft | 463 kts | 280° |
| 2026-05-05 11:48 | 52.49130 | -8.60758 | 36112 ft | 463 kts | 280° |
| 2026-05-05 11:48 | 52.50248 | -8.71188 | 36111 ft | 463 kts | 280° |
| 2026-05-05 11:49 | 52.51359 | -8.81645 | 36108 ft | 463 kts | 280° |
| 2026-05-05 11:49 | 52.52458 | -8.92078 | 36109 ft | 463 kts | 280° |
| 2026-05-05 11:50 | 52.53545 | -9.02497 | 36112 ft | 463 kts | 280° |
| 2026-05-05 11:50 | 52.54621 | -9.12894 | 36110 ft | 463 kts | 280° |
| 2026-05-05 11:51 | 52.55691 | -9.23329 | 36124 ft | 463 kts | 280° |
| 2026-05-05 11:51 | 52.56753 | -9.33783 | 36122 ft | 463 kts | 279° |
| 2026-05-05 11:52 | 52.57807 | -9.44255 | 36127 ft | 463 kts | 279° |
| 2026-05-05 11:52 | 52.58845 | -9.54655 | 36130 ft | 462 kts | 279° |
| 2026-05-05 11:53 | 52.59875 | -9.65079 | 36135 ft | 462 kts | 279° |
| 2026-05-05 11:53 | 52.60898 | -9.75530 | 36136 ft | 462 kts | 279° |
| 2026-05-05 11:54 | 52.61912 | -9.85985 | 36133 ft | 462 kts | 279° |
| 2026-05-05 11:54 | 52.62915 | -9.96439 | 36141 ft | 462 kts | 279° |
| 2026-05-05 11:55 | 52.63912 | -10.06914 | 36140 ft | 462 kts | 279° |
| 2026-05-05 11:55 | 52.64896 | -10.17366 | 36141 ft | 462 kts | 279° |
| 2026-05-05 11:56 | 52.65876 | -10.27871 | 36144 ft | 462 kts | 279° |
| 2026-05-05 11:56 | 52.66842 | -10.38328 | 36147 ft | 462 kts | 279° |
| 2026-05-05 11:57 | 52.67800 | -10.48809 | 36145 ft | 462 kts | 278° |
| 2026-05-05 11:57 | 52.68748 | -10.59278 | 36150 ft | 462 kts | 278° |
| 2026-05-05 11:58 | 52.69685 | -10.69740 | 36146 ft | 461 kts | 278° |
| 2026-05-05 11:58 | 52.70614 | -10.80222 | 36150 ft | 461 kts | 278° |
| 2026-05-05 11:59 | 52.71532 | -10.90685 | 36151 ft | 461 kts | 278° |
| 2026-05-05 11:59 | 52.72441 | -11.01154 | 36154 ft | 461 kts | 278° |
| 2026-05-05 12:00 | 52.73344 | -11.11660 | 36145 ft | 460 kts | 278° |
| 2026-05-05 12:00 | 52.74229 | -11.22074 | 36162 ft | 460 kts | 278° |
| 2026-05-05 12:01 | 52.75106 | -11.32511 | 36169 ft | 459 kts | 278° |
| 2026-05-05 12:01 | 52.75833 | -11.41245 | 36162 ft | 459 kts | 278° |
| 2026-05-05 12:02 | 52.76691 | -11.51654 | 36161 ft | 459 kts | 278° |
| 2026-05-05 12:02 | 52.77544 | -11.62113 | 36172 ft | 459 kts | 278° |
| 2026-05-05 12:03 | 52.78388 | -11.72586 | 36175 ft | 459 kts | 278° |
| 2026-05-05 12:03 | 52.79222 | -11.83053 | 36174 ft | 459 kts | 278° |
| 2026-05-05 12:04 | 52.80048 | -11.93540 | 36173 ft | 459 kts | 278° |
| 2026-05-05 12:04 | 52.80859 | -12.03966 | 36171 ft | 458 kts | 278° |
| 2026-05-05 12:05 | 52.81665 | -12.14432 | 36181 ft | 458 kts | 278° |
| 2026-05-05 12:05 | 52.82460 | -12.24886 | 36178 ft | 458 kts | 277° |
| 2026-05-05 12:06 | 52.83245 | -12.35336 | 36184 ft | 457 kts | 277° |
| 2026-05-05 12:06 | 52.84021 | -12.45781 | 36183 ft | 457 kts | 277° |
| 2026-05-05 12:07 | 52.84787 | -12.56233 | 36187 ft | 457 kts | 277° |
| 2026-05-05 12:07 | 52.85546 | -12.66707 | 36190 ft | 457 kts | 277° |
| 2026-05-05 12:08 | 52.86290 | -12.77111 | 36195 ft | 456 kts | 277° |
| 2026-05-05 12:08 | 52.87031 | -12.87602 | 36195 ft | 456 kts | 277° |
| 2026-05-05 12:09 | 52.87760 | -12.98062 | 36197 ft | 456 kts | 277° |
| 2026-05-05 12:09 | 52.88480 | -13.08517 | 36196 ft | 456 kts | 277° |
| 2026-05-05 12:10 | 52.89185 | -13.18895 | 36197 ft | 456 kts | 277° |
| 2026-05-05 12:10 | 52.89886 | -13.29365 | 36196 ft | 456 kts | 276° |
| 2026-05-05 12:11 | 52.90576 | -13.39795 | 36196 ft | 456 kts | 276° |
| 2026-05-05 12:11 | 52.91259 | -13.50258 | 36204 ft | 456 kts | 276° |
| 2026-05-05 12:12 | 52.91930 | -13.60701 | 36203 ft | 455 kts | 276° |
| 2026-05-05 12:12 | 52.92591 | -13.71118 | 36206 ft | 455 kts | 276° |
| 2026-05-05 12:13 | 52.93248 | -13.81626 | 36208 ft | 455 kts | 276° |
| 2026-05-05 12:13 | 52.93891 | -13.92051 | 36210 ft | 455 kts | 276° |
| 2026-05-05 12:14 | 52.94524 | -14.02477 | 36210 ft | 455 kts | 276° |
| 2026-05-05 12:14 | 52.95151 | -14.12944 | 36212 ft | 455 kts | 276° |
| 2026-05-05 12:15 | 52.95768 | -14.23410 | 36211 ft | 455 kts | 276° |
| 2026-05-05 12:15 | 52.96375 | -14.33867 | 36210 ft | 455 kts | 276° |
| 2026-05-05 12:16 | 52.96973 | -14.44330 | 36212 ft | 455 kts | 275° |
| 2026-05-05 12:16 | 52.97559 | -14.54728 | 36269 ft | 457 kts | 275° |
| 2026-05-05 12:17 | 52.97852 | -14.60007 | 36507 ft | 457 kts | 275° |
| 2026-05-05 12:17 | 52.98144 | -14.65303 | 36821 ft | 457 kts | 275° |
| 2026-05-05 12:17 | 52.98432 | -14.70563 | 37105 ft | 456 kts | 275° |
| 2026-05-05 12:17 | 52.98717 | -14.75812 | 37162 ft | 460 kts | 275° |
| 2026-05-05 12:18 | 52.99286 | -14.86392 | 37210 ft | 460 kts | 275° |
| 2026-05-05 12:18 | 52.99951 | -14.97012 | 37220 ft | 461 kts | 280° |
| 2026-05-05 12:19 | 53.01556 | -15.07305 | 37221 ft | 462 kts | 290° |
| 2026-05-05 12:19 | 53.03816 | -15.17307 | 37229 ft | 463 kts | 290° |
| 2026-05-05 12:20 | 53.06117 | -15.27381 | 37229 ft | 464 kts | 290° |
| 2026-05-05 12:20 | 53.08363 | -15.37371 | 37221 ft | 463 kts | 290° |
| 2026-05-05 12:21 | 53.10590 | -15.47407 | 37224 ft | 463 kts | 290° |
| 2026-05-05 12:21 | 53.12809 | -15.57479 | 37227 ft | 462 kts | 290° |
| 2026-05-05 12:22 | 53.15005 | -15.67494 | 37233 ft | 461 kts | 290° |
| 2026-05-05 12:22 | 53.17195 | -15.77532 | 37226 ft | 460 kts | 289° |
| 2026-05-05 12:23 | 53.19375 | -15.87567 | 37229 ft | 460 kts | 289° |
| 2026-05-05 12:23 | 53.21542 | -15.97589 | 37236 ft | 459 kts | 289° |
| 2026-05-05 12:24 | 53.23704 | -16.07641 | 37233 ft | 459 kts | 289° |
| 2026-05-05 12:24 | 53.25854 | -16.17686 | 37236 ft | 459 kts | 289° |
| 2026-05-05 12:25 | 53.28002 | -16.27770 | 37235 ft | 460 kts | 289° |
| 2026-05-05 12:25 | 53.30129 | -16.37810 | 37235 ft | 460 kts | 289° |
| 2026-05-05 12:26 | 53.32263 | -16.47926 | 37237 ft | 460 kts | 289° |
| 2026-05-05 12:26 | 53.34391 | -16.58068 | 37237 ft | 460 kts | 289° |
| 2026-05-05 12:27 | 53.36495 | -16.68145 | 37240 ft | 461 kts | 289° |
| 2026-05-05 12:27 | 53.38602 | -16.78290 | 37242 ft | 461 kts | 289° |
| 2026-05-05 12:28 | 53.40707 | -16.88474 | 37240 ft | 461 kts | 289° |
| 2026-05-05 12:28 | 53.42793 | -16.98622 | 37241 ft | 461 kts | 289° |
| 2026-05-05 12:29 | 53.44882 | -17.08833 | 37244 ft | 461 kts | 288° |
| 2026-05-05 12:29 | 53.46949 | -17.18986 | 37241 ft | 461 kts | 288° |
| 2026-05-05 12:30 | 53.49019 | -17.29213 | 37248 ft | 461 kts | 288° |
| 2026-05-05 12:30 | 53.51059 | -17.39338 | 37243 ft | 461 kts | 288° |
| 2026-05-05 12:31 | 53.53105 | -17.49551 | 37245 ft | 461 kts | 288° |
| 2026-05-05 12:31 | 53.54802 | -17.58062 | 37245 ft | 461 kts | 288° |
| 2026-05-05 12:32 | 53.56829 | -17.68274 | 37253 ft | 461 kts | 288° |
| 2026-05-05 12:32 | 53.58860 | -17.78560 | 37250 ft | 461 kts | 288° |
| 2026-05-05 12:33 | 53.60866 | -17.88775 | 37251 ft | 461 kts | 288° |
| 2026-05-05 12:33 | 53.62874 | -17.99058 | 37247 ft | 462 kts | 288° |
| 2026-05-05 12:34 | 53.64867 | -18.09315 | 37255 ft | 462 kts | 288° |
| 2026-05-05 12:34 | 53.66855 | -18.19599 | 37250 ft | 462 kts | 288° |
| 2026-05-05 12:35 | 53.68834 | -18.29896 | 37253 ft | 462 kts | 288° |
| 2026-05-05 12:35 | 53.70811 | -18.40238 | 37254 ft | 462 kts | 288° |
| 2026-05-05 12:36 | 53.72776 | -18.50570 | 37257 ft | 462 kts | 288° |
| 2026-05-05 12:36 | 53.74726 | -18.60883 | 37256 ft | 463 kts | 288° |
| 2026-05-05 12:37 | 53.76673 | -18.71233 | 37256 ft | 463 kts | 287° |
| 2026-05-05 12:37 | 53.78614 | -18.81615 | 37258 ft | 463 kts | 287° |
| 2026-05-05 12:38 | 53.80547 | -18.92003 | 37252 ft | 463 kts | 287° |
| 2026-05-05 12:38 | 53.82471 | -19.02406 | 37259 ft | 463 kts | 287° |
| 2026-05-05 12:39 | 53.84385 | -19.12815 | 37256 ft | 464 kts | 287° |
| 2026-05-05 12:39 | 53.86295 | -19.23255 | 37262 ft | 464 kts | 287° |
| 2026-05-05 12:40 | 53.88190 | -19.33677 | 37264 ft | 464 kts | 287° |
| 2026-05-05 12:40 | 53.90080 | -19.44132 | 37262 ft | 464 kts | 287° |
| 2026-05-05 12:41 | 53.91970 | -19.54642 | 37261 ft | 464 kts | 287° |
| 2026-05-05 12:41 | 53.93839 | -19.65095 | 37262 ft | 464 kts | 287° |
| 2026-05-05 12:42 | 53.95706 | -19.75603 | 37268 ft | 465 kts | 287° |
| 2026-05-05 12:42 | 53.97562 | -19.86103 | 37264 ft | 465 kts | 287° |
| 2026-05-05 12:43 | 53.99380 | -19.96605 | 37265 ft | 465 kts | 284° |
| 2026-05-05 12:43 | 54.00393 | -20.07471 | 37275 ft | 466 kts | 275° |
| 2026-05-05 12:44 | 54.00807 | -20.18495 | 37268 ft | 466 kts | 274° |
| 2026-05-05 12:44 | 54.01200 | -20.29490 | 37280 ft | 467 kts | 275° |
| 2026-05-05 12:45 | 54.01609 | -20.40508 | 37278 ft | 467 kts | 275° |
| 2026-05-05 12:45 | 54.02022 | -20.51518 | 37272 ft | 468 kts | 275° |
| 2026-05-05 12:46 | 54.02431 | -20.62591 | 37264 ft | 468 kts | 275° |
| 2026-05-05 12:46 | 54.02827 | -20.73577 | 37271 ft | 468 kts | 275° |
| 2026-05-05 12:47 | 54.03215 | -20.84661 | 37276 ft | 468 kts | 275° |
| 2026-05-05 12:47 | 54.03592 | -20.95738 | 37279 ft | 468 kts | 275° |
| 2026-05-05 12:48 | 54.03959 | -21.06809 | 37271 ft | 468 kts | 274° |
| 2026-05-05 12:48 | 54.04314 | -21.17831 | 37281 ft | 469 kts | 274° |
| 2026-05-05 12:49 | 54.04661 | -21.28926 | 37270 ft | 469 kts | 274° |
| 2026-05-05 12:49 | 54.04997 | -21.39985 | 37278 ft | 469 kts | 274° |
| 2026-05-05 12:50 | 54.05324 | -21.51086 | 37287 ft | 470 kts | 274° |
| 2026-05-05 12:50 | 54.05640 | -21.62173 | 37285 ft | 470 kts | 274° |
| 2026-05-05 12:51 | 54.05946 | -21.73244 | 37282 ft | 470 kts | 274° |
| 2026-05-05 12:51 | 54.06242 | -21.84358 | 37280 ft | 470 kts | 274° |
| 2026-05-05 12:52 | 54.06529 | -21.95500 | 37283 ft | 470 kts | 274° |
| 2026-05-05 12:52 | 54.06805 | -22.06619 | 37286 ft | 470 kts | 274° |
| 2026-05-05 12:53 | 54.07070 | -22.17709 | 37284 ft | 470 kts | 274° |
| 2026-05-05 12:53 | 54.07327 | -22.28890 | 37285 ft | 470 kts | 274° |
| 2026-05-05 12:54 | 54.07690 | -22.45535 | 37286 ft | 471 kts | 274° |
| 2026-05-05 12:55 | 54.07919 | -22.56650 | 37287 ft | 471 kts | 274° |
| 2026-05-05 12:55 | 54.08140 | -22.67830 | 37288 ft | 471 kts | 274° |
| 2026-05-05 12:56 | 54.08348 | -22.78902 | 37294 ft | 471 kts | 274° |
| 2026-05-05 12:56 | 54.08549 | -22.90111 | 37287 ft | 471 kts | 274° |
| 2026-05-05 12:57 | 54.08737 | -23.01222 | 37289 ft | 471 kts | 274° |
| 2026-05-05 12:57 | 54.08915 | -23.12351 | 37294 ft | 471 kts | 274° |
| 2026-05-05 12:58 | 54.09083 | -23.23470 | 37289 ft | 471 kts | 274° |
| 2026-05-05 12:58 | 54.09241 | -23.34610 | 37289 ft | 471 kts | 274° |
| 2026-05-05 12:59 | 54.09389 | -23.45741 | 37296 ft | 471 kts | 274° |
| 2026-05-05 12:59 | 54.09527 | -23.56940 | 37292 ft | 471 kts | 274° |
| 2026-05-05 13:00 | 54.09714 | -23.73662 | 37290 ft | 471 kts | 273° |
| 2026-05-05 13:01 | 54.09926 | -23.95924 | 37304 ft | 470 kts | 273° |
| 2026-05-05 13:01 | 54.10017 | -24.07023 | 37296 ft | 471 kts | 273° |
| 2026-05-05 13:02 | 54.10098 | -24.18146 | 37301 ft | 471 kts | 273° |
| 2026-05-05 13:02 | 54.10168 | -24.29291 | 37299 ft | 471 kts | 273° |
| 2026-05-05 13:03 | 54.10229 | -24.40428 | 37303 ft | 471 kts | 273° |
| 2026-05-05 13:03 | 54.10279 | -24.51634 | 37304 ft | 471 kts | 273° |
| 2026-05-05 13:04 | 54.10318 | -24.62732 | 37300 ft | 471 kts | 273° |
| 2026-05-05 13:04 | 54.10348 | -24.73947 | 37302 ft | 471 kts | 273° |
| 2026-05-05 13:05 | 54.10367 | -24.85100 | 37304 ft | 471 kts | 273° |
| 2026-05-05 13:05 | 54.10375 | -24.96272 | 37304 ft | 472 kts | 273° |
| 2026-05-05 13:06 | 54.10374 | -25.07422 | 37307 ft | 472 kts | 273° |
| 2026-05-05 13:06 | 54.10362 | -25.18585 | 37309 ft | 472 kts | 273° |
| 2026-05-05 13:07 | 54.10339 | -25.29754 | 37311 ft | 472 kts | 273° |
| 2026-05-05 13:07 | 54.10307 | -25.40895 | 37306 ft | 472 kts | 273° |
| 2026-05-05 13:08 | 54.10263 | -25.52134 | 37315 ft | 472 kts | 272° |
| 2026-05-05 13:08 | 54.10210 | -25.63289 | 37313 ft | 472 kts | 272° |
| 2026-05-05 13:09 | 54.10146 | -25.74450 | 37314 ft | 472 kts | 272° |
| 2026-05-05 13:09 | 54.10072 | -25.85665 | 37313 ft | 472 kts | 272° |
| 2026-05-05 13:10 | 54.09988 | -25.96811 | 37313 ft | 472 kts | 272° |
| 2026-05-05 13:10 | 54.09893 | -26.07978 | 37318 ft | 472 kts | 272° |
| 2026-05-05 13:11 | 54.09787 | -26.19217 | 37316 ft | 472 kts | 272° |
| 2026-05-05 13:11 | 54.09672 | -26.30362 | 37316 ft | 472 kts | 272° |
| 2026-05-05 13:12 | 54.09546 | -26.41512 | 37317 ft | 472 kts | 272° |
| 2026-05-05 13:12 | 54.09410 | -26.52671 | 37315 ft | 472 kts | 272° |
| 2026-05-05 13:13 | 54.09263 | -26.63839 | 37322 ft | 472 kts | 272° |
| 2026-05-05 13:13 | 54.09106 | -26.75057 | 37311 ft | 472 kts | 272° |
| 2026-05-05 13:14 | 54.08940 | -26.86153 | 37328 ft | 472 kts | 272° |
| 2026-05-05 13:14 | 54.08761 | -26.97370 | 37324 ft | 471 kts | 272° |
| 2026-05-05 13:15 | 54.08574 | -27.08511 | 37325 ft | 471 kts | 272° |
| 2026-05-05 13:15 | 54.08376 | -27.19668 | 37330 ft | 471 kts | 272° |
| 2026-05-05 13:16 | 54.08168 | -27.30787 | 37318 ft | 471 kts | 272° |
| 2026-05-05 13:16 | 54.07950 | -27.41889 | 37321 ft | 471 kts | 272° |
| 2026-05-05 13:17 | 54.07722 | -27.53012 | 37322 ft | 471 kts | 272° |
| 2026-05-05 13:17 | 54.07482 | -27.64216 | 37326 ft | 471 kts | 271° |
| 2026-05-05 13:18 | 54.07233 | -27.75341 | 37329 ft | 471 kts | 271° |
| 2026-05-05 13:18 | 54.06973 | -27.86463 | 37330 ft | 471 kts | 271° |
| 2026-05-05 13:19 | 54.06703 | -27.97621 | 37326 ft | 472 kts | 271° |
| 2026-05-05 13:19 | 54.06423 | -28.08740 | 37326 ft | 472 kts | 271° |
| 2026-05-05 13:20 | 54.06132 | -28.19895 | 37326 ft | 472 kts | 271° |
| 2026-05-05 13:20 | 54.05831 | -28.31053 | 37331 ft | 472 kts | 271° |
| 2026-05-05 13:21 | 54.05520 | -28.42185 | 37328 ft | 472 kts | 271° |
| 2026-05-05 13:21 | 54.05199 | -28.53307 | 37338 ft | 472 kts | 271° |
| 2026-05-05 13:22 | 54.04865 | -28.64497 | 37329 ft | 472 kts | 271° |
| 2026-05-05 13:22 | 54.04522 | -28.75660 | 37327 ft | 472 kts | 271° |
| 2026-05-05 13:23 | 54.04169 | -28.86795 | 37331 ft | 472 kts | 271° |
| 2026-05-05 13:23 | 54.03807 | -28.97916 | 37331 ft | 472 kts | 271° |
| 2026-05-05 13:24 | 54.03435 | -29.09016 | 37332 ft | 471 kts | 271° |
| 2026-05-05 13:24 | 54.03051 | -29.20176 | 37330 ft | 471 kts | 271° |
| 2026-05-05 13:25 | 54.02659 | -29.31250 | 37329 ft | 471 kts | 271° |
| 2026-05-05 13:25 | 54.02254 | -29.42406 | 37330 ft | 471 kts | 270° |
| 2026-05-05 13:26 | 54.01841 | -29.53510 | 37322 ft | 471 kts | 270° |
| 2026-05-05 13:26 | 54.01418 | -29.64598 | 37328 ft | 470 kts | 270° |
| 2026-05-05 13:27 | 54.00986 | -29.75651 | 37328 ft | 470 kts | 270° |
| 2026-05-05 13:27 | 54.00544 | -29.86728 | 37326 ft | 470 kts | 270° |
| 2026-05-05 13:28 | 54.00100 | -29.97791 | 37328 ft | 468 kts | 271° |
| 2026-05-05 13:28 | 54.00199 | -30.06951 | 37329 ft | 464 kts | 277° |
| 2026-05-05 13:29 | 54.00672 | -30.17876 | 37323 ft | 464 kts | 278° |
| 2026-05-05 13:29 | 54.01145 | -30.28837 | 37325 ft | 463 kts | 277° |
| 2026-05-05 13:30 | 54.01585 | -30.39776 | 37325 ft | 463 kts | 277° |
| 2026-05-05 13:30 | 54.02000 | -30.50697 | 37327 ft | 463 kts | 277° |
| 2026-05-05 13:31 | 54.02399 | -30.61555 | 37323 ft | 463 kts | 277° |
| 2026-05-05 13:31 | 54.02792 | -30.72499 | 37323 ft | 463 kts | 276° |
| 2026-05-05 13:32 | 54.03175 | -30.83434 | 37320 ft | 463 kts | 276° |
| 2026-05-05 13:32 | 54.03551 | -30.94426 | 37318 ft | 463 kts | 276° |
| 2026-05-05 13:33 | 54.03915 | -31.05367 | 37317 ft | 463 kts | 276° |
| 2026-05-05 13:33 | 54.04268 | -31.16291 | 37313 ft | 464 kts | 276° |
| 2026-05-05 13:34 | 54.04612 | -31.27233 | 37316 ft | 464 kts | 275° |
| 2026-05-05 13:34 | 54.04946 | -31.38191 | 37308 ft | 464 kts | 275° |
| 2026-05-05 13:35 | 54.05270 | -31.49133 | 37310 ft | 464 kts | 275° |
| 2026-05-05 13:35 | 54.05584 | -31.60094 | 37303 ft | 464 kts | 275° |
| 2026-05-05 13:36 | 54.05888 | -31.71041 | 37309 ft | 465 kts | 274° |
| 2026-05-05 13:36 | 54.06184 | -31.82065 | 37309 ft | 465 kts | 274° |
| 2026-05-05 13:37 | 54.06469 | -31.93028 | 37304 ft | 465 kts | 274° |
| 2026-05-05 13:37 | 54.06746 | -32.04085 | 37302 ft | 465 kts | 274° |
| 2026-05-05 13:38 | 54.07010 | -32.15072 | 37290 ft | 466 kts | 274° |
| 2026-05-05 13:38 | 54.07266 | -32.26085 | 37294 ft | 466 kts | 273° |
| 2026-05-05 13:39 | 54.07511 | -32.37097 | 37293 ft | 466 kts | 273° |
| 2026-05-05 13:39 | 54.07747 | -32.48143 | 37295 ft | 466 kts | 273° |
| 2026-05-05 13:40 | 54.07973 | -32.59181 | 37295 ft | 467 kts | 272° |
| 2026-05-05 13:40 | 54.08189 | -32.70288 | 37283 ft | 467 kts | 272° |
| 2026-05-05 13:41 | 54.08394 | -32.81275 | 37278 ft | 467 kts | 272° |
| 2026-05-05 13:41 | 54.08590 | -32.92359 | 37280 ft | 466 kts | 272° |
| 2026-05-05 13:42 | 54.08775 | -33.03381 | 37286 ft | 466 kts | 272° |
| 2026-05-05 13:42 | 54.08950 | -33.14468 | 37283 ft | 466 kts | 272° |
| 2026-05-05 13:43 | 54.09127 | -33.25474 | 37271 ft | 465 kts | 271° |
| 2026-05-05 13:43 | 54.09276 | -33.36461 | 37266 ft | 464 kts | 271° |
| 2026-05-05 13:44 | 54.09410 | -33.47524 | 37276 ft | 465 kts | 271° |
| 2026-05-05 13:44 | 54.09540 | -33.58537 | 37263 ft | 466 kts | 271° |
| 2026-05-05 13:45 | 54.09613 | -33.69573 | 37257 ft | 467 kts | 270° |
| 2026-05-05 13:45 | 54.09760 | -33.80617 | 37247 ft | 469 kts | 270° |
| 2026-05-05 13:46 | 54.09881 | -33.91776 | 37258 ft | 471 kts | 270° |
| 2026-05-05 13:46 | 54.09976 | -34.03009 | 37244 ft | 474 kts | 269° |
| 2026-05-05 13:47 | 54.10062 | -34.14250 | 37253 ft | 476 kts | 269° |
| 2026-05-05 13:47 | 54.10147 | -34.25539 | 37245 ft | 478 kts | 269° |
| 2026-05-05 13:48 | 54.10229 | -34.36872 | 37236 ft | 478 kts | 269° |
| 2026-05-05 13:48 | 54.10266 | -34.48206 | 37242 ft | 479 kts | 268° |
| 2026-05-05 13:49 | 54.10305 | -34.59577 | 37231 ft | 480 kts | 268° |
| 2026-05-05 13:49 | 54.10339 | -34.70963 | 37230 ft | 481 kts | 268° |
| 2026-05-05 13:50 | 54.10363 | -34.82364 | 37228 ft | 481 kts | 268° |
| 2026-05-05 13:50 | 54.10376 | -34.93781 | 37220 ft | 482 kts | 268° |
| 2026-05-05 13:51 | 54.10377 | -35.05213 | 37222 ft | 482 kts | 267° |
| 2026-05-05 13:51 | 54.10366 | -35.16703 | 37218 ft | 483 kts | 267° |
| 2026-05-05 13:52 | 54.10345 | -35.28123 | 37210 ft | 483 kts | 267° |
| 2026-05-05 13:52 | 54.10313 | -35.39598 | 37201 ft | 483 kts | 267° |
| 2026-05-05 13:53 | 54.10270 | -35.51084 | 37199 ft | 484 kts | 266° |
| 2026-05-05 13:53 | 54.10216 | -35.62538 | 37194 ft | 484 kts | 266° |
| 2026-05-05 13:54 | 54.10151 | -35.73981 | 37186 ft | 484 kts | 266° |
| 2026-05-05 13:54 | 54.10075 | -35.85518 | 37180 ft | 485 kts | 266° |
| 2026-05-05 13:55 | 54.09988 | -35.96965 | 37178 ft | 485 kts | 266° |
| 2026-05-05 13:55 | 54.09890 | -36.08448 | 37163 ft | 486 kts | 265° |
| 2026-05-05 13:56 | 54.09781 | -36.19959 | 37173 ft | 486 kts | 265° |
| 2026-05-05 13:56 | 54.09661 | -36.31499 | 37160 ft | 487 kts | 265° |
| 2026-05-05 13:57 | 54.09529 | -36.43057 | 37155 ft | 488 kts | 265° |
| 2026-05-05 13:57 | 54.09387 | -36.54554 | 37150 ft | 489 kts | 265° |
| 2026-05-05 13:58 | 54.09234 | -36.66129 | 37145 ft | 489 kts | 265° |
| 2026-05-05 13:58 | 54.09068 | -36.77757 | 37142 ft | 490 kts | 265° |
| 2026-05-05 13:59 | 54.08799 | -36.95137 | 37134 ft | 490 kts | 264° |
| 2026-05-05 14:00 | 54.08539 | -37.10615 | 37127 ft | 491 kts | 264° |
| 2026-05-05 14:00 | 54.08294 | -37.24176 | 37130 ft | 491 kts | 264° |
| 2026-05-05 14:01 | 54.08073 | -37.35784 | 37125 ft | 491 kts | 264° |
| 2026-05-05 14:01 | 54.07840 | -37.47390 | 37124 ft | 492 kts | 264° |
| 2026-05-05 14:02 | 54.07595 | -37.59046 | 37128 ft | 493 kts | 264° |
| 2026-05-05 14:02 | 54.07339 | -37.70706 | 37117 ft | 494 kts | 264° |
| 2026-05-05 14:03 | 54.07071 | -37.82403 | 37110 ft | 495 kts | 264° |
| 2026-05-05 14:03 | 54.06791 | -37.94090 | 37108 ft | 495 kts | 263° |
| 2026-05-05 14:04 | 54.06500 | -38.05807 | 37110 ft | 495 kts | 263° |
| 2026-05-05 14:04 | 54.06197 | -38.17525 | 37108 ft | 496 kts | 263° |
| 2026-05-05 14:05 | 54.05884 | -38.29184 | 37104 ft | 496 kts | 263° |
| 2026-05-05 14:05 | 54.05557 | -38.40947 | 37105 ft | 496 kts | 263° |
| 2026-05-05 14:06 | 54.05220 | -38.52626 | 37108 ft | 496 kts | 263° |
| 2026-05-05 14:06 | 54.04870 | -38.64397 | 37091 ft | 496 kts | 262° |
| 2026-05-05 14:07 | 54.04510 | -38.76113 | 37105 ft | 495 kts | 262° |
| 2026-05-05 14:07 | 54.04138 | -38.87834 | 37092 ft | 495 kts | 262° |
| 2026-05-05 14:08 | 54.03757 | -38.99490 | 37094 ft | 495 kts | 262° |
| 2026-05-05 14:08 | 54.03362 | -39.11212 | 37093 ft | 495 kts | 262° |
| 2026-05-05 14:09 | 54.03025 | -39.20950 | 37089 ft | 495 kts | 262° |
| 2026-05-05 14:09 | 54.02606 | -39.32742 | 37091 ft | 495 kts | 262° |
| 2026-05-05 14:10 | 54.02181 | -39.44395 | 37091 ft | 495 kts | 262° |
| 2026-05-05 14:10 | 54.01744 | -39.56080 | 37094 ft | 495 kts | 262° |
| 2026-05-05 14:11 | 54.01295 | -39.67783 | 37091 ft | 495 kts | 261° |
| 2026-05-05 14:11 | 54.00837 | -39.79420 | 37093 ft | 495 kts | 261° |
| 2026-05-05 14:12 | 54.00366 | -39.91140 | 37089 ft | 494 kts | 261° |
| 2026-05-05 14:12 | 53.99876 | -40.02772 | 37089 ft | 493 kts | 261° |
| 2026-05-05 14:13 | 53.99231 | -40.14417 | 37086 ft | 492 kts | 259° |
| 2026-05-05 14:13 | 53.98523 | -40.25970 | 37081 ft | 491 kts | 259° |
| 2026-05-05 14:14 | 53.97818 | -40.37511 | 37082 ft | 491 kts | 259° |
| 2026-05-05 14:14 | 53.97118 | -40.49043 | 37078 ft | 491 kts | 259° |
| 2026-05-05 14:15 | 53.96414 | -40.60576 | 37071 ft | 490 kts | 259° |
| 2026-05-05 14:15 | 53.95698 | -40.72104 | 37071 ft | 490 kts | 259° |
| 2026-05-05 14:16 | 53.94973 | -40.83592 | 37076 ft | 490 kts | 259° |
| 2026-05-05 14:16 | 53.94238 | -40.95061 | 37074 ft | 490 kts | 259° |
| 2026-05-05 14:17 | 53.93491 | -41.06524 | 37065 ft | 490 kts | 259° |
| 2026-05-05 14:17 | 53.92731 | -41.18026 | 37069 ft | 490 kts | 259° |
| 2026-05-05 14:18 | 53.91957 | -41.29559 | 37065 ft | 489 kts | 259° |
| 2026-05-05 14:18 | 53.91179 | -41.40996 | 37061 ft | 489 kts | 259° |
| 2026-05-05 14:19 | 53.90387 | -41.52473 | 37063 ft | 489 kts | 259° |
| 2026-05-05 14:19 | 53.89587 | -41.63898 | 37054 ft | 489 kts | 259° |
| 2026-05-05 14:20 | 53.88775 | -41.75347 | 37058 ft | 489 kts | 259° |
| 2026-05-05 14:20 | 53.87950 | -41.86811 | 37050 ft | 489 kts | 259° |
| 2026-05-05 14:21 | 53.87113 | -41.98275 | 37041 ft | 489 kts | 259° |
| 2026-05-05 14:21 | 53.86266 | -42.09740 | 37040 ft | 489 kts | 258° |
| 2026-05-05 14:22 | 53.85410 | -42.21164 | 37041 ft | 489 kts | 258° |
| 2026-05-05 14:22 | 53.84543 | -42.32587 | 37032 ft | 489 kts | 258° |
| 2026-05-05 14:23 | 53.83666 | -42.44002 | 37030 ft | 489 kts | 258° |
| 2026-05-05 14:23 | 53.82781 | -42.55370 | 37027 ft | 489 kts | 258° |
| 2026-05-05 14:24 | 53.81880 | -42.66796 | 37024 ft | 489 kts | 258° |
| 2026-05-05 14:24 | 53.80969 | -42.78216 | 37022 ft | 489 kts | 258° |
| 2026-05-05 14:25 | 53.80048 | -42.89608 | 37015 ft | 489 kts | 258° |
| 2026-05-05 14:25 | 53.79114 | -43.01040 | 37006 ft | 489 kts | 258° |
| 2026-05-05 14:26 | 53.78172 | -43.12420 | 37015 ft | 489 kts | 258° |
| 2026-05-05 14:26 | 53.77218 | -43.23811 | 37006 ft | 489 kts | 258° |
| 2026-05-05 14:27 | 53.76255 | -43.35174 | 37001 ft | 489 kts | 258° |
| 2026-05-05 14:27 | 53.75280 | -43.46546 | 36994 ft | 488 kts | 257° |
| 2026-05-05 14:28 | 53.74296 | -43.57895 | 36994 ft | 488 kts | 257° |
| 2026-05-05 14:28 | 53.73302 | -43.69236 | 36988 ft | 488 kts | 257° |
| 2026-05-05 14:29 | 53.72295 | -43.80590 | 36985 ft | 488 kts | 257° |
| 2026-05-05 14:29 | 53.71276 | -43.91950 | 36980 ft | 488 kts | 257° |
| 2026-05-05 14:30 | 53.70255 | -44.03217 | 36974 ft | 488 kts | 257° |
| 2026-05-05 14:30 | 53.69212 | -44.14595 | 36967 ft | 487 kts | 257° |
| 2026-05-05 14:31 | 53.68170 | -44.25849 | 36962 ft | 487 kts | 257° |
| 2026-05-05 14:31 | 53.67109 | -44.37178 | 36955 ft | 487 kts | 257° |
| 2026-05-05 14:32 | 53.66044 | -44.48438 | 36949 ft | 487 kts | 257° |
| 2026-05-05 14:32 | 53.64963 | -44.59740 | 36944 ft | 487 kts | 257° |
| 2026-05-05 14:33 | 53.63874 | -44.71020 | 36937 ft | 487 kts | 257° |
| 2026-05-05 14:33 | 53.62780 | -44.82226 | 36932 ft | 487 kts | 257° |
| 2026-05-05 14:34 | 53.61663 | -44.93561 | 36927 ft | 487 kts | 257° |
| 2026-05-05 14:34 | 53.60546 | -45.04788 | 36918 ft | 487 kts | 256° |
| 2026-05-05 14:35 | 53.59420 | -45.15987 | 36914 ft | 487 kts | 256° |
| 2026-05-05 14:35 | 53.58280 | -45.27210 | 36909 ft | 487 kts | 256° |
| 2026-05-05 14:36 | 53.57129 | -45.38437 | 36905 ft | 487 kts | 256° |
| 2026-05-05 14:36 | 53.55968 | -45.49658 | 36898 ft | 486 kts | 256° |
| 2026-05-05 14:37 | 53.54794 | -45.60888 | 36887 ft | 486 kts | 256° |
| 2026-05-05 14:37 | 53.53615 | -45.72067 | 36888 ft | 486 kts | 256° |
| 2026-05-05 14:38 | 53.52422 | -45.83268 | 36882 ft | 486 kts | 256° |
| 2026-05-05 14:38 | 53.51223 | -45.94426 | 36865 ft | 486 kts | 256° |
| 2026-05-05 14:39 | 53.50011 | -46.05597 | 36859 ft | 486 kts | 256° |
| 2026-05-05 14:39 | 53.48993 | -46.14900 | 36868 ft | 486 kts | 256° |
| 2026-05-05 14:40 | 53.47550 | -46.27972 | 36860 ft | 486 kts | 256° |
| 2026-05-05 14:40 | 53.46308 | -46.39117 | 36849 ft | 486 kts | 256° |
| 2026-05-05 14:41 | 53.45265 | -46.48395 | 36850 ft | 486 kts | 256° |
| 2026-05-05 14:41 | 53.44009 | -46.59479 | 36837 ft | 486 kts | 256° |
| 2026-05-05 14:42 | 53.42732 | -46.70660 | 36833 ft | 486 kts | 256° |
| 2026-05-05 14:42 | 53.41453 | -46.81749 | 36831 ft | 486 kts | 256° |
| 2026-05-05 14:43 | 53.40160 | -46.92873 | 36820 ft | 485 kts | 256° |
| 2026-05-05 14:43 | 53.38858 | -47.03976 | 36815 ft | 485 kts | 256° |
| 2026-05-05 14:44 | 53.37539 | -47.15127 | 36812 ft | 485 kts | 256° |
| 2026-05-05 14:44 | 53.36219 | -47.26192 | 36801 ft | 485 kts | 255° |
| 2026-05-05 14:45 | 53.34885 | -47.37282 | 36797 ft | 485 kts | 255° |
| 2026-05-05 14:45 | 53.33541 | -47.48363 | 36793 ft | 485 kts | 255° |
| 2026-05-05 14:46 | 53.32191 | -47.59401 | 36786 ft | 485 kts | 255° |
| 2026-05-05 14:46 | 53.30824 | -47.70485 | 36782 ft | 485 kts | 255° |
| 2026-05-05 14:47 | 53.29452 | -47.81526 | 36777 ft | 485 kts | 255° |
| 2026-05-05 14:47 | 53.28070 | -47.92551 | 36768 ft | 484 kts | 255° |
| 2026-05-05 14:48 | 53.26682 | -48.03539 | 36772 ft | 484 kts | 255° |
| 2026-05-05 14:48 | 53.25279 | -48.14564 | 36763 ft | 484 kts | 255° |
| 2026-05-05 14:49 | 53.23873 | -48.25523 | 36752 ft | 484 kts | 255° |
| 2026-05-05 14:49 | 53.22447 | -48.36550 | 36749 ft | 484 kts | 255° |
| 2026-05-05 14:50 | 53.21019 | -48.47505 | 36744 ft | 484 kts | 255° |
| 2026-05-05 14:50 | 53.19585 | -48.58421 | 36736 ft | 483 kts | 255° |
| 2026-05-05 14:51 | 53.18133 | -48.69403 | 36728 ft | 483 kts | 255° |
| 2026-05-05 14:51 | 53.16680 | -48.80294 | 36722 ft | 483 kts | 255° |
| 2026-05-05 14:52 | 53.15214 | -48.91203 | 36721 ft | 482 kts | 255° |
| 2026-05-05 14:52 | 53.13736 | -49.02127 | 36717 ft | 482 kts | 255° |
| 2026-05-05 14:53 | 53.12262 | -49.12941 | 36712 ft | 482 kts | 255° |
| 2026-05-05 14:53 | 53.10765 | -49.23837 | 36703 ft | 481 kts | 255° |
| 2026-05-05 14:54 | 53.09261 | -49.34717 | 36700 ft | 481 kts | 255° |
| 2026-05-05 14:54 | 53.07749 | -49.45560 | 36697 ft | 480 kts | 254° |
| 2026-05-05 14:55 | 53.06237 | -49.56337 | 36691 ft | 480 kts | 254° |
| 2026-05-05 14:55 | 53.04710 | -49.67140 | 36681 ft | 480 kts | 254° |
| 2026-05-05 14:56 | 53.03173 | -49.77935 | 36676 ft | 480 kts | 254° |
| 2026-05-05 14:56 | 53.01634 | -49.88690 | 36672 ft | 480 kts | 254° |
| 2026-05-05 14:57 | 53.00034 | -49.99481 | 36671 ft | 479 kts | 251° |
| 2026-05-05 14:57 | 52.97740 | -50.09805 | 36670 ft | 476 kts | 246° |
| 2026-05-05 14:58 | 52.95230 | -50.20021 | 36662 ft | 476 kts | 246° |
| 2026-05-05 14:58 | 52.92741 | -50.30169 | 36653 ft | 476 kts | 246° |
| 2026-05-05 14:59 | 52.90257 | -50.40359 | 36653 ft | 476 kts | 246° |
| 2026-05-05 14:59 | 52.87783 | -50.50507 | 36649 ft | 475 kts | 246° |
| 2026-05-05 15:00 | 52.85716 | -50.58955 | 36642 ft | 475 kts | 246° |
| 2026-05-05 15:00 | 52.82831 | -50.70725 | 36643 ft | 473 kts | 246° |
| 2026-05-05 15:01 | 52.80334 | -50.80798 | 36644 ft | 473 kts | 246° |
| 2026-05-05 15:01 | 52.77822 | -50.90890 | 36633 ft | 473 kts | 246° |
| 2026-05-05 15:02 | 52.75323 | -51.00903 | 36627 ft | 473 kts | 246° |
| 2026-05-05 15:02 | 52.72806 | -51.10947 | 36626 ft | 473 kts | 246° |
| 2026-05-05 15:03 | 52.70280 | -51.20979 | 36619 ft | 473 kts | 246° |
| 2026-05-05 15:03 | 52.67743 | -51.31011 | 36617 ft | 474 kts | 246° |
| 2026-05-05 15:04 | 52.65197 | -51.41029 | 36611 ft | 474 kts | 246° |
| 2026-05-05 15:04 | 52.62649 | -51.51016 | 36613 ft | 474 kts | 246° |
| 2026-05-05 15:05 | 52.58819 | -51.65938 | 36606 ft | 473 kts | 246° |
| 2026-05-05 15:06 | 52.56237 | -51.75947 | 36599 ft | 473 kts | 246° |
| 2026-05-05 15:06 | 52.53663 | -51.85876 | 36600 ft | 473 kts | 246° |
| 2026-05-05 15:07 | 52.51090 | -51.95756 | 36598 ft | 472 kts | 246° |
| 2026-05-05 15:07 | 52.48484 | -52.05723 | 36594 ft | 472 kts | 246° |
| 2026-05-05 15:08 | 52.45893 | -52.15588 | 36594 ft | 471 kts | 246° |
| 2026-05-05 15:08 | 52.43291 | -52.25454 | 36591 ft | 471 kts | 246° |
| 2026-05-05 15:09 | 52.40686 | -52.35289 | 36587 ft | 470 kts | 246° |
| 2026-05-05 15:09 | 52.38079 | -52.45085 | 36588 ft | 469 kts | 246° |
| 2026-05-05 15:10 | 52.35461 | -52.54883 | 36584 ft | 469 kts | 246° |
| 2026-05-05 15:10 | 52.32856 | -52.64590 | 36580 ft | 468 kts | 246° |
| 2026-05-05 15:11 | 52.30230 | -52.74334 | 36577 ft | 468 kts | 245° |
| 2026-05-05 15:11 | 52.27601 | -52.84050 | 36582 ft | 468 kts | 245° |
| 2026-05-05 15:12 | 52.24959 | -52.93771 | 36576 ft | 468 kts | 245° |
| 2026-05-05 15:12 | 52.22318 | -53.03448 | 36578 ft | 468 kts | 245° |
| 2026-05-05 15:13 | 52.19661 | -53.13146 | 36574 ft | 468 kts | 245° |
| 2026-05-05 15:13 | 52.16986 | -53.22866 | 36576 ft | 468 kts | 245° |
| 2026-05-05 15:14 | 52.14311 | -53.32543 | 36573 ft | 468 kts | 245° |
| 2026-05-05 15:14 | 52.11641 | -53.42164 | 36571 ft | 468 kts | 245° |
| 2026-05-05 15:15 | 52.08940 | -53.51857 | 36571 ft | 468 kts | 245° |
| 2026-05-05 15:15 | 52.06248 | -53.61478 | 36567 ft | 468 kts | 245° |
| 2026-05-05 15:16 | 52.04000 | -53.69482 | 36572 ft | 469 kts | 245° |
| 2026-05-05 15:16 | 52.01286 | -53.79111 | 36571 ft | 469 kts | 245° |
| 2026-05-05 15:17 | 51.98549 | -53.88780 | 36574 ft | 470 kts | 245° |
| 2026-05-05 15:17 | 51.95819 | -53.98386 | 36570 ft | 470 kts | 245° |
| 2026-05-05 15:18 | 51.93060 | -54.08052 | 36569 ft | 471 kts | 245° |
| 2026-05-05 15:18 | 51.90305 | -54.17666 | 36572 ft | 471 kts | 245° |
| 2026-05-05 15:19 | 51.87540 | -54.27278 | 36570 ft | 472 kts | 245° |
| 2026-05-05 15:19 | 51.84755 | -54.36920 | 36571 ft | 472 kts | 245° |
| 2026-05-05 15:20 | 51.81967 | -54.46539 | 36575 ft | 472 kts | 245° |
| 2026-05-05 15:20 | 51.79044 | -54.56013 | 36574 ft | 471 kts | 240° |
| 2026-05-05 15:21 | 51.75630 | -54.65018 | 36576 ft | 470 kts | 239° |
| 2026-05-05 15:21 | 51.72180 | -54.73988 | 36581 ft | 469 kts | 239° |
| 2026-05-05 15:22 | 51.68749 | -54.82941 | 36575 ft | 468 kts | 239° |
| 2026-05-05 15:22 | 51.65335 | -54.91865 | 36577 ft | 466 kts | 239° |
| 2026-05-05 15:23 | 51.61944 | -55.00712 | 36576 ft | 465 kts | 239° |
| 2026-05-05 15:23 | 51.58539 | -55.09565 | 36571 ft | 465 kts | 239° |
| 2026-05-05 15:24 | 51.55137 | -55.18379 | 36571 ft | 464 kts | 239° |
| 2026-05-05 15:24 | 51.51696 | -55.27262 | 36809 ft | 468 kts | 239° |
| 2026-05-05 15:24 | 51.49981 | -55.31677 | 37142 ft | 466 kts | 238° |
| 2026-05-05 15:25 | 51.48271 | -55.36072 | 37450 ft | 466 kts | 238° |
| 2026-05-05 15:25 | 51.44802 | -55.44965 | 37558 ft | 470 kts | 238° |
| 2026-05-05 15:26 | 51.41359 | -55.53759 | 37551 ft | 465 kts | 238° |
| 2026-05-05 15:26 | 51.37916 | -55.62522 | 37547 ft | 461 kts | 238° |
| 2026-05-05 15:27 | 51.34509 | -55.71168 | 37547 ft | 458 kts | 238° |
| 2026-05-05 15:27 | 51.31100 | -55.79789 | 37541 ft | 458 kts | 238° |
| 2026-05-05 15:28 | 51.27707 | -55.88341 | 37542 ft | 458 kts | 238° |
| 2026-05-05 15:28 | 51.24271 | -55.96972 | 37542 ft | 460 kts | 238° |
| 2026-05-05 15:29 | 51.20842 | -56.05559 | 37563 ft | 462 kts | 238° |
| 2026-05-05 15:29 | 51.17373 | -56.14218 | 37547 ft | 463 kts | 239° |
| 2026-05-05 15:30 | 51.13905 | -56.22843 | 37546 ft | 464 kts | 239° |
| 2026-05-05 15:30 | 51.10409 | -56.31507 | 37554 ft | 464 kts | 239° |
| 2026-05-05 15:31 | 51.06918 | -56.40131 | 37563 ft | 463 kts | 239° |
| 2026-05-05 15:31 | 51.03416 | -56.48754 | 37558 ft | 462 kts | 239° |
| 2026-05-05 15:32 | 50.99933 | -56.57301 | 37576 ft | 459 kts | 239° |
| 2026-05-05 15:32 | 50.96475 | -56.65760 | 37576 ft | 457 kts | 239° |
| 2026-05-05 15:33 | 50.93002 | -56.74228 | 37584 ft | 455 kts | 239° |
| 2026-05-05 15:33 | 50.89550 | -56.82616 | 37583 ft | 453 kts | 238° |
| 2026-05-05 15:34 | 50.86133 | -56.90896 | 37590 ft | 450 kts | 238° |
| 2026-05-05 15:34 | 50.82684 | -56.99224 | 37590 ft | 450 kts | 238° |
| 2026-05-05 15:35 | 50.79260 | -57.07467 | 37604 ft | 450 kts | 238° |
| 2026-05-05 15:35 | 50.75810 | -57.15747 | 37612 ft | 452 kts | 238° |
| 2026-05-05 15:36 | 50.72341 | -57.24047 | 37622 ft | 454 kts | 238° |
| 2026-05-05 15:36 | 50.68856 | -57.32356 | 37639 ft | 456 kts | 238° |
| 2026-05-05 15:37 | 50.65341 | -57.40710 | 37640 ft | 458 kts | 238° |
| 2026-05-05 15:37 | 50.61805 | -57.49087 | 37650 ft | 459 kts | 238° |
| 2026-05-05 15:38 | 50.58248 | -57.57486 | 37659 ft | 460 kts | 238° |
| 2026-05-05 15:38 | 50.54704 | -57.65829 | 37674 ft | 460 kts | 238° |
| 2026-05-05 15:39 | 50.51128 | -57.74220 | 37683 ft | 460 kts | 238° |
| 2026-05-05 15:39 | 50.47570 | -57.82541 | 37691 ft | 460 kts | 238° |
| 2026-05-05 15:40 | 50.43988 | -57.90894 | 37703 ft | 460 kts | 238° |
| 2026-05-05 15:40 | 50.40428 | -57.99170 | 37712 ft | 459 kts | 238° |
| 2026-05-05 15:41 | 50.36842 | -58.07478 | 37713 ft | 459 kts | 238° |
| 2026-05-05 15:41 | 50.33270 | -58.15729 | 37713 ft | 459 kts | 238° |
| 2026-05-05 15:42 | 50.29675 | -58.24006 | 37719 ft | 459 kts | 238° |
| 2026-05-05 15:42 | 50.26092 | -58.32230 | 37723 ft | 459 kts | 238° |
| 2026-05-05 15:43 | 50.22488 | -58.40475 | 37727 ft | 459 kts | 238° |
| 2026-05-05 15:43 | 50.18878 | -58.48710 | 37731 ft | 459 kts | 238° |
| 2026-05-05 15:44 | 50.15261 | -58.56934 | 37731 ft | 459 kts | 238° |
| 2026-05-05 15:44 | 50.11622 | -58.65182 | 37731 ft | 459 kts | 238° |
| 2026-05-05 15:45 | 50.08019 | -58.73322 | 37738 ft | 459 kts | 238° |
| 2026-05-05 15:45 | 50.04386 | -58.81506 | 37741 ft | 458 kts | 238° |
| 2026-05-05 15:46 | 50.00756 | -58.89660 | 37746 ft | 458 kts | 238° |
| 2026-05-05 15:46 | 49.97142 | -58.97751 | 37745 ft | 457 kts | 238° |
| 2026-05-05 15:47 | 49.93500 | -59.05880 | 37748 ft | 456 kts | 238° |
| 2026-05-05 15:47 | 49.89885 | -59.13923 | 37753 ft | 455 kts | 238° |
| 2026-05-05 15:48 | 49.86271 | -59.21940 | 37760 ft | 454 kts | 238° |
| 2026-05-05 15:48 | 49.82660 | -59.29926 | 37761 ft | 452 kts | 238° |
| 2026-05-05 15:49 | 49.79040 | -59.37909 | 37762 ft | 451 kts | 238° |
| 2026-05-05 15:49 | 49.75439 | -59.45825 | 37769 ft | 450 kts | 238° |
| 2026-05-05 15:50 | 49.71834 | -59.53728 | 37772 ft | 449 kts | 238° |
| 2026-05-05 15:50 | 49.68230 | -59.61605 | 37777 ft | 448 kts | 238° |
| 2026-05-05 15:51 | 49.64625 | -59.69461 | 37773 ft | 448 kts | 238° |
| 2026-05-05 15:51 | 49.61024 | -59.77284 | 37772 ft | 448 kts | 238° |
| 2026-05-05 15:52 | 49.57425 | -59.85081 | 37777 ft | 448 kts | 238° |
| 2026-05-05 15:52 | 49.53795 | -59.92923 | 37778 ft | 449 kts | 238° |
| 2026-05-05 15:53 | 49.50169 | -60.00732 | 37780 ft | 450 kts | 237° |
| 2026-05-05 15:53 | 49.46519 | -60.08568 | 37783 ft | 451 kts | 237° |
| 2026-05-05 15:54 | 49.42859 | -60.16404 | 37783 ft | 452 kts | 237° |
| 2026-05-05 15:54 | 49.39181 | -60.24256 | 37786 ft | 453 kts | 237° |
| 2026-05-05 15:55 | 49.36089 | -60.30838 | 37786 ft | 454 kts | 237° |
| 2026-05-05 15:55 | 49.32389 | -60.38693 | 37784 ft | 454 kts | 237° |
| 2026-05-05 15:56 | 49.28699 | -60.46503 | 37801 ft | 454 kts | 237° |
| 2026-05-05 15:56 | 49.24980 | -60.54353 | 37803 ft | 455 kts | 237° |
| 2026-05-05 15:57 | 49.21247 | -60.62209 | 37798 ft | 455 kts | 237° |
| 2026-05-05 15:57 | 49.17533 | -60.70003 | 37795 ft | 454 kts | 237° |
| 2026-05-05 15:58 | 49.13786 | -60.77842 | 37801 ft | 454 kts | 237° |
| 2026-05-05 15:58 | 49.10058 | -60.85619 | 37803 ft | 454 kts | 237° |
| 2026-05-05 15:59 | 49.06335 | -60.93364 | 37805 ft | 454 kts | 237° |
| 2026-05-05 15:59 | 49.02593 | -61.01125 | 37808 ft | 454 kts | 237° |
| 2026-05-05 16:00 | 48.98864 | -61.08839 | 37810 ft | 454 kts | 237° |
| 2026-05-05 16:00 | 48.95110 | -61.16578 | 37796 ft | 453 kts | 237° |
| 2026-05-05 16:01 | 48.91346 | -61.24307 | 37801 ft | 452 kts | 237° |
| 2026-05-05 16:01 | 48.87611 | -61.31968 | 37814 ft | 454 kts | 237° |
| 2026-05-05 16:02 | 48.83817 | -61.39728 | 37821 ft | 456 kts | 237° |
| 2026-05-05 16:02 | 48.80036 | -61.47440 | 37816 ft | 456 kts | 237° |
| 2026-05-05 16:03 | 48.76229 | -61.55180 | 37815 ft | 456 kts | 237° |
| 2026-05-05 16:03 | 48.72463 | -61.62813 | 37820 ft | 454 kts | 237° |
| 2026-05-05 16:04 | 48.68666 | -61.70486 | 37812 ft | 453 kts | 237° |
| 2026-05-05 16:04 | 48.64872 | -61.78132 | 37818 ft | 451 kts | 237° |
| 2026-05-05 16:05 | 48.61113 | -61.85687 | 37819 ft | 449 kts | 237° |
| 2026-05-05 16:05 | 48.57353 | -61.93223 | 37817 ft | 448 kts | 237° |
| 2026-05-05 16:06 | 48.53602 | -62.00721 | 37820 ft | 447 kts | 236° |
| 2026-05-05 16:06 | 48.49832 | -62.08235 | 37817 ft | 447 kts | 236° |
| 2026-05-05 16:07 | 48.46072 | -62.15709 | 37817 ft | 447 kts | 236° |
| 2026-05-05 16:07 | 48.42335 | -62.23115 | 37818 ft | 446 kts | 236° |
| 2026-05-05 16:08 | 48.38570 | -62.30556 | 37814 ft | 446 kts | 236° |
| 2026-05-05 16:08 | 48.34784 | -62.38021 | 37808 ft | 446 kts | 236° |
| 2026-05-05 16:09 | 48.31018 | -62.45424 | 37810 ft | 446 kts | 236° |
| 2026-05-05 16:09 | 48.27235 | -62.52838 | 37811 ft | 446 kts | 236° |
| 2026-05-05 16:10 | 48.23466 | -62.60208 | 37808 ft | 445 kts | 236° |
| 2026-05-05 16:10 | 48.19687 | -62.67575 | 37809 ft | 445 kts | 236° |
| 2026-05-05 16:11 | 48.17044 | -62.72716 | 37803 ft | 445 kts | 236° |
| 2026-05-05 16:12 | 48.10429 | -62.85540 | 37799 ft | 444 kts | 236° |
| 2026-05-05 16:13 | 48.00972 | -63.03770 | 37807 ft | 443 kts | 235° |
| 2026-05-05 16:13 | 47.97170 | -63.11065 | 37801 ft | 443 kts | 235° |
| 2026-05-05 16:14 | 47.89593 | -63.25545 | 37798 ft | 444 kts | 235° |
| 2026-05-05 16:15 | 47.81951 | -63.40071 | 37794 ft | 445 kts | 235° |
| 2026-05-05 16:16 | 47.74298 | -63.54541 | 37788 ft | 446 kts | 234° |
| 2026-05-05 16:17 | 47.68535 | -63.65386 | 37787 ft | 446 kts | 234° |
| 2026-05-05 16:18 | 47.62734 | -63.76258 | 37791 ft | 447 kts | 234° |
| 2026-05-05 16:19 | 47.56941 | -63.87075 | 37784 ft | 447 kts | 234° |
| 2026-05-05 16:19 | 47.51132 | -63.97876 | 37776 ft | 447 kts | 234° |
| 2026-05-05 16:20 | 47.43348 | -64.12284 | 37773 ft | 448 kts | 234° |
| 2026-05-05 16:22 | 47.33592 | -64.30236 | 37775 ft | 448 kts | 233° |
| 2026-05-05 16:23 | 47.25783 | -64.44520 | 37781 ft | 449 kts | 233° |
| 2026-05-05 16:23 | 47.19895 | -64.55240 | 37777 ft | 449 kts | 233° |
| 2026-05-05 16:24 | 47.16595 | -64.61232 | 37786 ft | 449 kts | 233° |
| 2026-05-05 16:25 | 47.10692 | -64.71914 | 37767 ft | 449 kts | 233° |
| 2026-05-05 16:25 | 47.04768 | -64.82594 | 37772 ft | 449 kts | 233° |
| 2026-05-05 16:26 | 46.96863 | -64.96780 | 37769 ft | 449 kts | 233° |
| 2026-05-05 16:27 | 46.92920 | -65.03831 | 37782 ft | 449 kts | 233° |
| 2026-05-05 16:27 | 46.88941 | -65.10925 | 37771 ft | 449 kts | 233° |
| 2026-05-05 16:28 | 46.84975 | -65.17978 | 37783 ft | 449 kts | 233° |
| 2026-05-05 16:28 | 46.81026 | -65.24982 | 37777 ft | 449 kts | 233° |
| 2026-05-05 16:29 | 46.77047 | -65.32023 | 37790 ft | 448 kts | 233° |
| 2026-05-05 16:29 | 46.73060 | -65.39060 | 37779 ft | 449 kts | 233° |
| 2026-05-05 16:30 | 46.69080 | -65.46067 | 37792 ft | 448 kts | 232° |
| 2026-05-05 16:30 | 46.65079 | -65.53091 | 37783 ft | 449 kts | 232° |
| 2026-05-05 16:31 | 46.61106 | -65.60051 | 37795 ft | 449 kts | 232° |
| 2026-05-05 16:31 | 46.57092 | -65.67063 | 37788 ft | 449 kts | 232° |
| 2026-05-05 16:32 | 46.53091 | -65.74034 | 37799 ft | 449 kts | 232° |
| 2026-05-05 16:32 | 46.49085 | -65.80997 | 37788 ft | 449 kts | 232° |
| 2026-05-05 16:33 | 46.45080 | -65.87941 | 37791 ft | 449 kts | 232° |
| 2026-05-05 16:33 | 46.41065 | -65.94884 | 37793 ft | 448 kts | 232° |
| 2026-05-05 16:34 | 46.37064 | -66.01786 | 37808 ft | 448 kts | 232° |
| 2026-05-05 16:34 | 46.33049 | -66.08693 | 37790 ft | 448 kts | 232° |
| 2026-05-05 16:35 | 46.29033 | -66.15589 | 37806 ft | 448 kts | 232° |
| 2026-05-05 16:35 | 46.25019 | -66.22460 | 37782 ft | 448 kts | 232° |
| 2026-05-05 16:36 | 46.20994 | -66.29335 | 37812 ft | 448 kts | 232° |
| 2026-05-05 16:36 | 46.16950 | -66.36224 | 37792 ft | 448 kts | 232° |
| 2026-05-05 16:37 | 46.12896 | -66.43114 | 37796 ft | 448 kts | 232° |
| 2026-05-05 16:37 | 46.08847 | -66.49977 | 37793 ft | 448 kts | 232° |
| 2026-05-05 16:38 | 46.04810 | -66.56805 | 37805 ft | 448 kts | 232° |
| 2026-05-05 16:38 | 46.00757 | -66.63641 | 37796 ft | 448 kts | 232° |
| 2026-05-05 16:39 | 45.96725 | -66.70425 | 37807 ft | 448 kts | 232° |
| 2026-05-05 16:39 | 45.92650 | -66.77264 | 37797 ft | 448 kts | 231° |
| 2026-05-05 16:40 | 45.88619 | -66.84015 | 37810 ft | 447 kts | 231° |
| 2026-05-05 16:40 | 45.84568 | -66.90782 | 37800 ft | 447 kts | 231° |
| 2026-05-05 16:41 | 45.80508 | -66.97547 | 37806 ft | 446 kts | 231° |
| 2026-05-05 16:41 | 45.76452 | -67.04289 | 37803 ft | 445 kts | 231° |
| 2026-05-05 16:42 | 45.72409 | -67.10992 | 37813 ft | 444 kts | 231° |
| 2026-05-05 16:42 | 45.68374 | -67.17667 | 37803 ft | 444 kts | 231° |
| 2026-05-05 16:43 | 45.64323 | -67.24352 | 37818 ft | 444 kts | 231° |
| 2026-05-05 16:43 | 45.60271 | -67.31025 | 37805 ft | 444 kts | 231° |
| 2026-05-05 16:44 | 45.56216 | -67.37684 | 37809 ft | 444 kts | 231° |
| 2026-05-05 16:44 | 45.52149 | -67.44348 | 37805 ft | 444 kts | 231° |
| 2026-05-05 16:45 | 45.48079 | -67.51000 | 37824 ft | 444 kts | 231° |
| 2026-05-05 16:45 | 45.44031 | -67.57601 | 37811 ft | 444 kts | 231° |
| 2026-05-05 16:46 | 45.39934 | -67.64269 | 37824 ft | 444 kts | 231° |
| 2026-05-05 16:46 | 45.35865 | -67.70876 | 37821 ft | 445 kts | 231° |
| 2026-05-05 16:47 | 45.31766 | -67.77471 | 37832 ft | 445 kts | 230° |
| 2026-05-05 16:47 | 45.27631 | -67.83984 | 37823 ft | 445 kts | 230° |
| 2026-05-05 16:48 | 45.23490 | -67.90479 | 37834 ft | 445 kts | 230° |
| 2026-05-05 16:48 | 45.19347 | -67.96976 | 37827 ft | 445 kts | 230° |
| 2026-05-05 16:49 | 45.15179 | -68.03506 | 37839 ft | 444 kts | 230° |
| 2026-05-05 16:49 | 45.11048 | -68.09968 | 37831 ft | 444 kts | 230° |
| 2026-05-05 16:50 | 45.06908 | -68.16427 | 37844 ft | 444 kts | 230° |
| 2026-05-05 16:50 | 45.02753 | -68.22895 | 37836 ft | 444 kts | 230° |
| 2026-05-05 16:51 | 44.98604 | -68.29338 | 37849 ft | 444 kts | 230° |
| 2026-05-05 16:51 | 44.94421 | -68.35819 | 37839 ft | 444 kts | 230° |
| 2026-05-05 16:52 | 44.90277 | -68.42225 | 37850 ft | 444 kts | 230° |
| 2026-05-05 16:52 | 44.86111 | -68.48650 | 37833 ft | 445 kts | 230° |
| 2026-05-05 16:53 | 44.81902 | -68.55126 | 37834 ft | 445 kts | 230° |
| 2026-05-05 16:53 | 44.77730 | -68.61529 | 37824 ft | 446 kts | 230° |
| 2026-05-05 16:54 | 44.73531 | -68.67961 | 37834 ft | 446 kts | 230° |
| 2026-05-05 16:54 | 44.69337 | -68.74370 | 37819 ft | 447 kts | 230° |
| 2026-05-05 16:55 | 44.65111 | -68.80811 | 37834 ft | 447 kts | 229° |
| 2026-05-05 16:55 | 44.60899 | -68.87217 | 37823 ft | 448 kts | 229° |
| 2026-05-05 16:56 | 44.56681 | -68.93616 | 37834 ft | 448 kts | 229° |
| 2026-05-05 16:56 | 44.52447 | -69.00026 | 37825 ft | 448 kts | 229° |
| 2026-05-05 16:57 | 44.48205 | -69.06433 | 37838 ft | 448 kts | 229° |
| 2026-05-05 16:57 | 44.43972 | -69.12813 | 37825 ft | 449 kts | 229° |
| 2026-05-05 16:58 | 44.39720 | -69.19206 | 37839 ft | 448 kts | 229° |
| 2026-05-05 16:58 | 44.36167 | -69.24538 | 37844 ft | 448 kts | 229° |
| 2026-05-05 16:59 | 44.31208 | -69.31960 | 37863 ft | 448 kts | 229° |
| 2026-05-05 16:59 | 44.27656 | -69.37266 | 37852 ft | 449 kts | 229° |
| 2026-05-05 17:00 | 44.23376 | -69.43644 | 37838 ft | 449 kts | 229° |
| 2026-05-05 17:00 | 44.19107 | -69.49993 | 37837 ft | 450 kts | 229° |
| 2026-05-05 17:01 | 44.14846 | -69.56316 | 37840 ft | 450 kts | 229° |
| 2026-05-05 17:01 | 44.10567 | -69.62649 | 37848 ft | 450 kts | 229° |
| 2026-05-05 17:02 | 44.06266 | -69.69001 | 37836 ft | 449 kts | 229° |
| 2026-05-05 17:02 | 44.01980 | -69.75318 | 37841 ft | 448 kts | 229° |
| 2026-05-05 17:03 | 43.97731 | -69.81565 | 37836 ft | 448 kts | 229° |
| 2026-05-05 17:03 | 43.93430 | -69.87874 | 37860 ft | 447 kts | 229° |
| 2026-05-05 17:04 | 43.89175 | -69.94103 | 37839 ft | 447 kts | 229° |
| 2026-05-05 17:04 | 43.84882 | -70.00373 | 37859 ft | 447 kts | 229° |
| 2026-05-05 17:05 | 43.80603 | -70.06608 | 37841 ft | 446 kts | 229° |
| 2026-05-05 17:05 | 43.76334 | -70.12816 | 37826 ft | 446 kts | 229° |
| 2026-05-05 17:06 | 43.72045 | -70.19040 | 37810 ft | 446 kts | 229° |
| 2026-05-05 17:06 | 43.67766 | -70.25233 | 37819 ft | 446 kts | 229° |
| 2026-05-05 17:07 | 43.63501 | -70.31394 | 37812 ft | 446 kts | 229° |
| 2026-05-05 17:07 | 43.59204 | -70.37588 | 37822 ft | 446 kts | 229° |
| 2026-05-05 17:08 | 43.54902 | -70.43776 | 37806 ft | 447 kts | 229° |
| 2026-05-05 17:08 | 43.50592 | -70.49961 | 37823 ft | 447 kts | 229° |
| 2026-05-05 17:09 | 43.46304 | -70.56104 | 37799 ft | 447 kts | 229° |
| 2026-05-05 17:09 | 43.41675 | -70.61806 | 37800 ft | 451 kts | 213° |
| 2026-05-05 17:10 | 43.35768 | -70.64934 | 37792 ft | 456 kts | 203° |
| 2026-05-05 17:10 | 43.29783 | -70.67740 | 37805 ft | 457 kts | 204° |
| 2026-05-05 17:11 | 43.23785 | -70.70632 | 37806 ft | 458 kts | 204° |
| 2026-05-05 17:11 | 43.17759 | -70.73577 | 37809 ft | 458 kts | 204° |
| 2026-05-05 17:12 | 43.11774 | -70.76504 | 37799 ft | 458 kts | 204° |
| 2026-05-05 17:12 | 43.05767 | -70.79433 | 37801 ft | 458 kts | 204° |
| 2026-05-05 17:13 | 42.99781 | -70.82343 | 37804 ft | 457 kts | 204° |
| 2026-05-05 17:13 | 42.93789 | -70.85251 | 37817 ft | 456 kts | 204° |
| 2026-05-05 17:14 | 42.87821 | -70.88141 | 37812 ft | 456 kts | 204° |
| 2026-05-05 17:14 | 42.81837 | -70.91033 | 37851 ft | 455 kts | 204° |
| 2026-05-05 17:15 | 42.75874 | -70.93910 | 37843 ft | 454 kts | 204° |
| 2026-05-05 17:15 | 42.69951 | -70.96763 | 37859 ft | 453 kts | 204° |
| 2026-05-05 17:16 | 42.63975 | -70.99639 | 37841 ft | 454 kts | 204° |
| 2026-05-05 17:16 | 42.58034 | -71.02491 | 37857 ft | 453 kts | 204° |
| 2026-05-05 17:17 | 42.52106 | -71.05332 | 37850 ft | 453 kts | 204° |
| 2026-05-05 17:17 | 42.46157 | -71.08177 | 37862 ft | 453 kts | 204° |
| 2026-05-05 17:18 | 42.40222 | -71.11008 | 37858 ft | 453 kts | 204° |
| 2026-05-05 17:18 | 42.34290 | -71.13833 | 37865 ft | 453 kts | 204° |
| 2026-05-05 17:19 | 42.28315 | -71.16673 | 37861 ft | 453 kts | 204° |
| 2026-05-05 17:19 | 42.22368 | -71.19494 | 37871 ft | 453 kts | 204° |
| 2026-05-05 17:20 | 42.16434 | -71.22303 | 37877 ft | 453 kts | 203° |
| 2026-05-05 17:20 | 42.10483 | -71.25115 | 37875 ft | 452 kts | 204° |
| 2026-05-05 17:21 | 42.04576 | -71.27901 | 37875 ft | 452 kts | 203° |
| 2026-05-05 17:22 | 41.95648 | -71.32100 | 37901 ft | 452 kts | 203° |
| 2026-05-05 17:22 | 41.89730 | -71.34876 | 37895 ft | 452 kts | 203° |
| 2026-05-05 17:23 | 41.83834 | -71.37638 | 37535 ft | 448 kts | 203° |
| 2026-05-05 17:23 | 41.80863 | -71.39028 | 37111 ft | 450 kts | 203° |
| 2026-05-05 17:23 | 41.77900 | -71.40414 | 36644 ft | 453 kts | 203° |
| 2026-05-05 17:23 | 41.74925 | -71.41803 | 36193 ft | 455 kts | 203° |
| 2026-05-05 17:24 | 41.72015 | -71.43423 | 35719 ft | 452 kts | 213° |
| 2026-05-05 17:24 | 41.69511 | -71.45898 | 35267 ft | 445 kts | 224° |
| 2026-05-05 17:24 | 41.67186 | -71.48599 | 34946 ft | 443 kts | 224° |
| 2026-05-05 17:24 | 41.64863 | -71.51293 | 34703 ft | 441 kts | 224° |
| 2026-05-05 17:25 | 41.62546 | -71.53950 | 34438 ft | 438 kts | 223° |
| 2026-05-05 17:25 | 41.60992 | -71.55712 | 34106 ft | 437 kts | 223° |
| 2026-05-05 17:25 | 41.57931 | -71.59149 | 33343 ft | 432 kts | 223° |
| 2026-05-05 17:25 | 41.55617 | -71.61727 | 32836 ft | 427 kts | 223° |
| 2026-05-05 17:26 | 41.53369 | -71.64224 | 31889 ft | 423 kts | 220° |
| 2026-05-05 17:26 | 41.51089 | -71.66762 | 31429 ft | 420 kts | 221° |
| 2026-05-05 17:26 | 41.48854 | -71.69242 | 31021 ft | 420 kts | 221° |
| 2026-05-05 17:26 | 41.46620 | -71.71711 | 30738 ft | 418 kts | 221° |
| 2026-05-05 17:27 | 41.44375 | -71.74190 | 30326 ft | 415 kts | 221° |
| 2026-05-05 17:27 | 41.42177 | -71.76622 | 29813 ft | 411 kts | 221° |
| 2026-05-05 17:27 | 41.39971 | -71.79063 | 29251 ft | 407 kts | 221° |
| 2026-05-05 17:27 | 41.37820 | -71.81442 | 28757 ft | 403 kts | 221° |
| 2026-05-05 17:28 | 41.35658 | -71.83830 | 28242 ft | 398 kts | 221° |
| 2026-05-05 17:28 | 41.33528 | -71.86181 | 27732 ft | 394 kts | 221° |
| 2026-05-05 17:28 | 41.31433 | -71.88491 | 27235 ft | 390 kts | 221° |
| 2026-05-05 17:28 | 41.29366 | -71.90765 | 26742 ft | 387 kts | 221° |
| 2026-05-05 17:29 | 41.27291 | -71.93046 | 26234 ft | 384 kts | 221° |
| 2026-05-05 17:29 | 41.25229 | -71.95311 | 25764 ft | 381 kts | 221° |
| 2026-05-05 17:29 | 41.23891 | -71.96779 | 25444 ft | 379 kts | 221° |
| 2026-05-05 17:29 | 41.21866 | -71.99000 | 24970 ft | 376 kts | 221° |
| 2026-05-05 17:30 | 41.19875 | -72.01184 | 24500 ft | 374 kts | 221° |
| 2026-05-05 17:30 | 41.17857 | -72.03395 | 24050 ft | 372 kts | 221° |
| 2026-05-05 17:30 | 41.15866 | -72.05576 | 23562 ft | 371 kts | 221° |
| 2026-05-05 17:30 | 41.13887 | -72.07741 | 23012 ft | 369 kts | 221° |
| 2026-05-05 17:31 | 41.11901 | -72.09910 | 22496 ft | 366 kts | 221° |
| 2026-05-05 17:31 | 41.10174 | -72.12300 | 22012 ft | 357 kts | 236° |
| 2026-05-05 17:31 | 41.09047 | -72.15217 | 21537 ft | 352 kts | 250° |
| 2026-05-05 17:31 | 41.08277 | -72.18263 | 21066 ft | 349 kts | 252° |
| 2026-05-05 17:32 | 41.07538 | -72.21348 | 20600 ft | 347 kts | 252° |
| 2026-05-05 17:32 | 41.06821 | -72.24362 | 20135 ft | 345 kts | 252° |
| 2026-05-05 17:32 | 41.06094 | -72.27386 | 19666 ft | 343 kts | 252° |
| 2026-05-05 17:32 | 41.05359 | -72.30413 | 19202 ft | 342 kts | 252° |
| 2026-05-05 17:33 | 41.04624 | -72.33407 | 18733 ft | 340 kts | 252° |
| 2026-05-05 17:33 | 41.03888 | -72.36382 | 18275 ft | 339 kts | 252° |
| 2026-05-05 17:33 | 41.03154 | -72.39340 | 17777 ft | 337 kts | 252° |
| 2026-05-05 17:33 | 41.02425 | -72.42267 | 17479 ft | 329 kts | 252° |
| 2026-05-05 17:34 | 41.01721 | -72.45084 | 17402 ft | 315 kts | 252° |
| 2026-05-05 17:34 | 41.01056 | -72.47746 | 17313 ft | 303 kts | 252° |
| 2026-05-05 17:34 | 41.00405 | -72.50343 | 17245 ft | 291 kts | 252° |
| 2026-05-05 17:34 | 40.99767 | -72.52889 | 16720 ft | 294 kts | 252° |
| 2026-05-05 17:35 | 40.99133 | -72.55418 | 16540 ft | 285 kts | 252° |
| 2026-05-05 17:35 | 40.98515 | -72.57879 | 16374 ft | 277 kts | 252° |
| 2026-05-05 17:35 | 40.97920 | -72.60245 | 16316 ft | 265 kts | 252° |
| 2026-05-05 17:35 | 40.97346 | -72.62526 | 16154 ft | 257 kts | 252° |
| 2026-05-05 17:36 | 40.96785 | -72.64753 | 15857 ft | 254 kts | 252° |
| 2026-05-05 17:36 | 40.96227 | -72.66967 | 15532 ft | 253 kts | 252° |
| 2026-05-05 17:36 | 40.95672 | -72.69170 | 15217 ft | 251 kts | 252° |
| 2026-05-05 17:36 | 40.95120 | -72.71357 | 14922 ft | 249 kts | 252° |
| 2026-05-05 17:37 | 40.94570 | -72.73533 | 14637 ft | 247 kts | 252° |
| 2026-05-05 17:37 | 40.94210 | -72.74955 | 14442 ft | 246 kts | 252° |
| 2026-05-05 17:37 | 40.93487 | -72.77805 | 14027 ft | 244 kts | 252° |
| 2026-05-05 17:37 | 40.92732 | -72.79793 | 13648 ft | 247 kts | 235° |
| 2026-05-05 17:38 | 40.91498 | -72.81390 | 13382 ft | 250 kts | 224° |
| 2026-05-05 17:38 | 40.90128 | -72.82740 | 13126 ft | 247 kts | 221° |
| 2026-05-05 17:38 | 40.88730 | -72.84052 | 12832 ft | 245 kts | 221° |
| 2026-05-05 17:38 | 40.87344 | -72.85350 | 12521 ft | 243 kts | 221° |
| 2026-05-05 17:39 | 40.85970 | -72.86643 | 12203 ft | 242 kts | 221° |
| 2026-05-05 17:39 | 40.84607 | -72.87933 | 11915 ft | 240 kts | 221° |
| 2026-05-05 17:39 | 40.83259 | -72.89213 | 11635 ft | 237 kts | 221° |
| 2026-05-05 17:39 | 40.81928 | -72.90480 | 11359 ft | 235 kts | 221° |
| 2026-05-05 17:40 | 40.80604 | -72.91745 | 11074 ft | 234 kts | 221° |
| 2026-05-05 17:40 | 40.79290 | -72.92998 | 10787 ft | 233 kts | 221° |
| 2026-05-05 17:40 | 40.77985 | -72.94247 | 10539 ft | 230 kts | 221° |
| 2026-05-05 17:40 | 40.76692 | -72.95482 | 10286 ft | 228 kts | 221° |
| 2026-05-05 17:41 | 40.75413 | -72.96704 | 10029 ft | 226 kts | 221° |
| 2026-05-05 17:41 | 40.74141 | -72.97920 | 9718 ft | 225 kts | 221° |
| 2026-05-05 17:41 | 40.73070 | -72.99280 | 9493 ft | 213 kts | 242° |
| 2026-05-05 17:41 | 40.72749 | -73.01170 | 9382 ft | 221 kts | 271° |
| 2026-05-05 17:42 | 40.73331 | -73.03136 | 9270 ft | 242 kts | 298° |
| 2026-05-05 17:42 | 40.74470 | -73.04837 | 9169 ft | 250 kts | 305° |
| 2026-05-05 17:42 | 40.75707 | -73.06448 | 9090 ft | 249 kts | 307° |
| 2026-05-05 17:42 | 40.76951 | -73.08031 | 9043 ft | 247 kts | 307° |
| 2026-05-05 17:43 | 40.78193 | -73.09602 | 9010 ft | 247 kts | 307° |
| 2026-05-05 17:43 | 40.79435 | -73.11166 | 8892 ft | 247 kts | 307° |
| 2026-05-05 17:43 | 40.80682 | -73.12733 | 8603 ft | 247 kts | 307° |
| 2026-05-05 17:43 | 40.81930 | -73.14306 | 8257 ft | 249 kts | 307° |
| 2026-05-05 17:44 | 40.83181 | -73.15890 | 7921 ft | 249 kts | 307° |
| 2026-05-05 17:44 | 40.84198 | -73.17637 | 7506 ft | 234 kts | 286° |
| 2026-05-05 17:44 | 40.84709 | -73.19669 | 7148 ft | 232 kts | 278° |
| 2026-05-05 17:44 | 40.85105 | -73.21729 | 6872 ft | 231 kts | 277° |
| 2026-05-05 17:45 | 40.85487 | -73.23792 | 6574 ft | 231 kts | 277° |
| 2026-05-05 17:45 | 40.85689 | -73.25151 | 6326 ft | 225 kts | 268° |
| 2026-05-05 17:45 | 40.85610 | -73.27179 | 5929 ft | 224 kts | 259° |
| 2026-05-05 17:45 | 40.85301 | -73.29864 | 5569 ft | 222 kts | 257° |
| 2026-05-05 17:46 | 40.85055 | -73.31884 | 5251 ft | 223 kts | 257° |
| 2026-05-05 17:46 | 40.84804 | -73.33883 | 5047 ft | 218 kts | 257° |
| 2026-05-05 17:46 | 40.84554 | -73.35844 | 4939 ft | 216 kts | 257° |
| 2026-05-05 17:46 | 40.84303 | -73.37822 | 4832 ft | 220 kts | 257° |
| 2026-05-05 17:47 | 40.84003 | -73.39817 | 4706 ft | 222 kts | 254° |
| 2026-05-05 17:47 | 40.83638 | -73.41814 | 4499 ft | 225 kts | 254° |
| 2026-05-05 17:47 | 40.83267 | -73.43840 | 4264 ft | 227 kts | 254° |
| 2026-05-05 17:47 | 40.83022 | -73.45176 | 4087 ft | 225 kts | 254° |
| 2026-05-05 17:48 | 40.82659 | -73.47158 | 3926 ft | 219 kts | 255° |
| 2026-05-05 17:48 | 40.82305 | -73.49101 | 3735 ft | 216 kts | 255° |
| 2026-05-05 17:48 | 40.81959 | -73.51025 | 3592 ft | 215 kts | 255° |
| 2026-05-05 17:48 | 40.81617 | -73.52947 | 3418 ft | 215 kts | 255° |
| 2026-05-05 17:49 | 40.81274 | -73.54879 | 3291 ft | 218 kts | 255° |
| 2026-05-05 17:49 | 40.80921 | -73.56858 | 3177 ft | 225 kts | 256° |
| 2026-05-05 17:49 | 40.80564 | -73.58850 | 3096 ft | 219 kts | 256° |
| 2026-05-05 17:49 | 40.80229 | -73.60761 | 3032 ft | 208 kts | 255° |
| 2026-05-05 17:50 | 40.79875 | -73.62544 | 3001 ft | 191 kts | 246° |
| 2026-05-05 17:50 | 40.79008 | -73.63869 | 2978 ft | 195 kts | 218° |
| 2026-05-05 17:50 | 40.77923 | -73.64871 | 3001 ft | 186 kts | 217° |
| 2026-05-05 17:50 | 40.76846 | -73.65795 | 2766 ft | 183 kts | 214° |
| 2026-05-05 17:51 | 40.75804 | -73.66627 | 2576 ft | 166 kts | 214° |
| 2026-05-05 17:51 | 40.74852 | -73.67371 | 2388 ft | 154 kts | 212° |
| 2026-05-05 17:51 | 40.73971 | -73.68082 | 2187 ft | 144 kts | 215° |
| 2026-05-05 17:51 | 40.73111 | -73.68772 | 1987 ft | 142 kts | 211° |
| 2026-05-05 17:52 | 40.72293 | -73.69364 | 1750 ft | 126 kts | 213° |
| 2026-05-05 17:52 | 40.71559 | -73.69965 | 1633 ft | 126 kts | 212° |
| 2026-05-05 17:52 | 40.70792 | -73.70575 | 1441 ft | 133 kts | 210° |
| 2026-05-05 17:52 | 40.70007 | -73.71182 | 1281 ft | 129 kts | 210° |
| 2026-05-05 17:53 | 40.69247 | -73.71776 | 1109 ft | 127 kts | 207° |
| 2026-05-05 17:53 | 40.68811 | -73.72106 | 1031 ft | 130 kts | 209° |
| 2026-05-05 17:53 | 40.68195 | -73.72610 | 855 ft | 133 kts | 210° |
| 2026-05-05 17:53 | 40.67422 | -73.73221 | 731 ft | 128 kts | 207° |
| 2026-05-05 17:54 | 40.66638 | -73.73825 | 542 ft | 133 kts | 207° |
| 2026-05-05 17:54 | 40.65852 | -73.74444 | 355 ft | 130 kts | 206° |
| 2026-05-05 17:54 | 40.65070 | -73.75064 | 182 ft | 130 kts | 207° |
| 2026-05-05 17:54 | 40.64280 | -73.75681 | 43 ft | 132 kts | 206° |
| 2026-05-05 17:55 | 40.63555 | -73.76242 | 26 ft | 104 kts | 210° |
| 2026-05-05 17:55 | 40.63114 | -73.76586 | 23 ft | 41 kts | 213° |
| 2026-05-05 17:55 | 40.62973 | -73.76788 | 24 ft | 26 kts | 238° |
| 2026-05-05 17:55 | 40.62931 | -73.76891 | 24 ft | 11 kts | 250° |
| 2026-05-05 17:56 | 40.62939 | -73.76988 | 24 ft | 11 kts | 294° |
| 2026-05-05 17:56 | 40.62979 | -73.77083 | 23 ft | 13 kts | 300° |
| 2026-05-05 17:56 | 40.63026 | -73.77187 | 22 ft | 14 kts | 301° |
| 2026-05-05 17:56 | 40.63078 | -73.77298 | 21 ft | 15 kts | 301° |
| 2026-05-05 17:57 | 40.63133 | -73.77418 | 21 ft | 16 kts | 301° |
| 2026-05-05 17:57 | 40.63191 | -73.77546 | 22 ft | 16 kts | 300° |
| 2026-05-05 17:57 | 40.63248 | -73.77675 | 28 ft | 16 kts | 300° |
| 2026-05-05 17:57 | 40.63307 | -73.77807 | 28 ft | 18 kts | 300° |
| 2026-05-05 17:58 | 40.63376 | -73.77963 | 26 ft | 20 kts | 299° |
| 2026-05-05 17:58 | 40.63446 | -73.78125 | 25 ft | 20 kts | 301° |
| 2026-05-05 17:58 | 40.63518 | -73.78285 | 25 ft | 20 kts | 301° |
| 2026-05-05 17:58 | 40.63591 | -73.78444 | 25 ft | 20 kts | 301° |
| 2026-05-05 17:59 | 40.63663 | -73.78601 | 24 ft | 20 kts | 301° |
| 2026-05-05 17:59 | 40.63735 | -73.78760 | 25 ft | 20 kts | 301° |
| 2026-05-05 17:59 | 40.63784 | -73.78869 | 26 ft | 10 kts | 301° |
| 2026-05-05 17:59 | 40.63821 | -73.78949 | 23 ft | 10 kts | 301° |
| 2026-05-05 18:00 | 40.63844 | -73.79001 | 25 ft | 6 kts | 301° |
| 2026-05-05 18:00 | 40.63866 | -73.79050 | 21 ft | 5 kts | 301° |
| 2026-05-05 18:00 | 40.63873 | -73.79065 | 24 ft | 0 kts | 301° |
| 2026-05-05 18:01 | 40.63906 | -73.79138 | 21 ft | 14 kts | 301° |
| 2026-05-05 18:01 | 40.63958 | -73.79253 | 22 ft | 15 kts | 301° |
| 2026-05-05 18:01 | 40.64014 | -73.79376 | 24 ft | 16 kts | 301° |
| 2026-05-05 18:01 | 40.64054 | -73.79463 | 21 ft | 11 kts | 302° |
| 2026-05-05 18:02 | 40.64120 | -73.79507 | 22 ft | 12 kts | 355° |
| 2026-05-05 18:02 | 40.64205 | -73.79505 | 21 ft | 13 kts | 3° |
| 2026-05-05 18:02 | 40.64299 | -73.79497 | 21 ft | 14 kts | 4° |
| 2026-05-05 18:02 | 40.64399 | -73.79492 | 21 ft | 15 kts | 358° |
| 2026-05-05 18:03 | 40.64503 | -73.79502 | 21 ft | 15 kts | 354° |
| 2026-05-05 18:03 | 40.64608 | -73.79538 | 21 ft | 16 kts | 333° |
| 2026-05-05 18:03 | 40.64696 | -73.79612 | 20 ft | 10 kts | 324° |
| 2026-05-05 18:03 | 40.64740 | -73.79612 | 20 ft | 7 kts | 38° |
| 2026-05-05 18:04 | 40.64772 | -73.79555 | 20 ft | 8 kts | 60° |
| 2026-05-05 18:04 | 40.64803 | -73.79482 | 20 ft | 10 kts | 60° |
| 2026-05-05 18:04 | 40.64839 | -73.79398 | 22 ft | 11 kts | 60° |
| 2026-05-05 18:04 | 40.64879 | -73.79304 | 22 ft | 12 kts | 60° |
| 2026-05-05 18:05 | 40.64923 | -73.79201 | 22 ft | 14 kts | 60° |
| 2026-05-05 18:05 | 40.64971 | -73.79089 | 22 ft | 15 kts | 60° |
| 2026-05-05 18:05 | 40.65017 | -73.78979 | 21 ft | 8 kts | 61° |
| 2026-05-05 18:05 | 40.65030 | -73.78906 | 21 ft | 9 kts | 97° |
| 2026-05-05 18:06 | 40.64991 | -73.78861 | 23 ft | 8 kts | 162° |
| 2026-05-05 18:06 | 40.64958 | -73.78848 | 22 ft | 7 kts | 167° |
| 2026-05-05 18:06 | 40.64919 | -73.78886 | 20 ft | 2 kts | 240° |
| 2026-05-05 18:06 | 40.64909 | -73.78910 | 20 ft | 4 kts | 241° |
| 2026-05-05 18:07 | 40.64904 | -73.78923 | 22 ft | 2 kts | 241° |
| 2026-05-05 18:07 | 40.64901 | -73.78929 | 23 ft | 0 kts | 242° |